Time,TemperatureF,DewpointF,PressureIn,WindDirection,WindDirectionDegrees,WindSpeedMPH,WindSpeedGustMPH,Humidity,HourlyPrecipIn,Conditions,Clouds,dailyrainin,SoftwareType,DateUTC
2013-01-29 00:00:00,74.0,66.8,30.25,East,84,4.9,6.3,78,0.00,,---,0.00,VWS V13.01,2013-01-29 05:00:00,
2013-01-29 00:01:00,74.1,67.0,30.25,NNE,30,4.0,6.3,78,0.00,,---,0.00,VWS V13.01,2013-01-29 05:01:00,
2013-01-29 00:02:00,73.9,66.8,30.25,ENE,70,3.8,7.0,78,0.00,,---,0.00,VWS V13.01,2013-01-29 05:02:00,
2013-01-29 00:03:00,73.9,66.7,30.25,NE,56,3.1,7.3,78,0.00,,---,0.00,VWS V13.01,2013-01-29 05:03:00,
2013-01-29 00:04:00,73.9,66.7,30.25,NE,49,3.7,3.7,78,0.00,,---,0.00,VWS V13.01,2013-01-29 05:04:00,
2013-01-29 00:05:00,74.0,66.8,30.24,NE,35,3.4,4.2,78,0.00,,---,0.00,VWS V13.01,2013-01-29 05:05:00,
2013-01-29 00:06:00,73.9,66.7,30.25,ENE,75,2.4,5.7,78,0.00,,---,0.00,VWS V13.01,2013-01-29 05:06:00,
2013-01-29 00:07:00,74.0,66.8,30.25,ENE,63,4.2,4.5,78,0.00,,---,0.00,VWS V13.01,2013-01-29 05:07:00,
2013-01-29 00:08:00,74.0,66.8,30.24,NE,52,3.1,7.9,78,0.00,,---,0.00,VWS V13.01,2013-01-29 05:08:00,
2013-01-29 00:09:00,73.9,66.6,30.24,NE,46,5.4,5.4,78,0.00,,---,0.00,VWS V13.01,2013-01-29 05:09:00,
2013-01-29 00:10:00,74.0,66.7,30.24,ENE,70,2.7,4.0,78,0.00,,---,0.00,VWS V13.01,2013-01-29 05:10:00,
2013-01-29 00:11:00,74.1,66.8,30.24,NE,51,5.5,5.5,78,0.00,,---,0.00,VWS V13.01,2013-01-29 05:11:00,
2013-01-29 00:12:00,73.9,66.6,30.24,ENE,59,4.1,5.5,78,0.00,,---,0.00,VWS V13.01,2013-01-29 05:12:00,
2013-01-29 00:13:00,73.9,66.6,30.24,ENE,58,4.4,5.7,78,0.00,,---,0.00,VWS V13.01,2013-01-29 05:13:00,
2013-01-29 00:14:00,74.1,66.8,30.24,East,90,1.2,4.4,78,0.00,,---,0.00,VWS V13.01,2013-01-29 05:14:00,
2013-01-29 00:15:00,74.0,66.8,30.24,NNE,28,5.1,6.2,78,0.00,,---,0.00,VWS V13.01,2013-01-29 05:15:00,
2013-01-29 00:16:00,73.9,66.7,30.24,NE,55,8.0,8.0,78,0.00,,---,0.00,VWS V13.01,2013-01-29 05:16:00,
2013-01-29 00:17:00,74.1,66.9,30.24,NE,55,2.2,8.5,78,0.00,,---,0.00,VWS V13.01,2013-01-29 05:17:00,
2013-01-29 00:18:00,74.1,67.0,30.24,NE,56,2.8,5.2,78,0.00,,---,0.00,VWS V13.01,2013-01-29 05:18:00,
2013-01-29 00:19:00,73.9,66.7,30.24,NE,49,1.4,3.1,78,0.00,,---,0.00,VWS V13.01,2013-01-29 05:19:00,
2013-01-29 00:20:00,73.9,66.7,30.24,NE,44,3.0,3.0,78,0.00,,---,0.00,VWS V13.01,2013-01-29 05:20:00,
2013-01-29 00:21:00,73.9,66.8,30.24,East,82,2.4,4.7,78,0.00,,---,0.00,VWS V13.01,2013-01-29 05:21:00,
2013-01-29 00:22:00,74.0,66.9,30.24,ENE,72,1.0,2.6,78,0.00,,---,0.00,VWS V13.01,2013-01-29 05:22:00,
2013-01-29 00:23:00,74.0,66.9,30.24,NE,48,2.9,3.5,78,0.00,,---,0.00,VWS V13.01,2013-01-29 05:23:00,
2013-01-29 00:24:00,73.9,66.8,30.24,East,80,1.0,6.5,78,0.00,,---,0.00,VWS V13.01,2013-01-29 05:24:00,
2013-01-29 00:25:00,73.9,66.8,30.24,East,90,1.5,1.7,78,0.00,,---,0.00,VWS V13.01,2013-01-29 05:25:00,
2013-01-29 00:26:00,74.1,67.0,30.24,East,97,2.5,2.5,78,0.00,,---,0.00,VWS V13.01,2013-01-29 05:26:00,
2013-01-29 00:27:00,73.8,66.7,30.24,East,89,3.5,5.3,78,0.00,,---,0.00,VWS V13.01,2013-01-29 05:27:00,
2013-01-29 00:28:00,73.9,66.8,30.24,East,89,2.9,3.5,78,0.00,,---,0.00,VWS V13.01,2013-01-29 05:28:00,
2013-01-29 00:29:00,73.9,66.8,30.24,East,89,4.0,4.0,78,0.00,,---,0.00,VWS V13.01,2013-01-29 05:29:00,
2013-01-29 00:30:00,74.0,66.8,30.24,NW,305,2.6,5.5,78,0.00,,---,0.00,VWS V13.01,2013-01-29 05:30:00,
2013-01-29 00:31:00,73.7,66.5,30.24,NNE,22,1.4,5.5,78,0.00,,---,0.00,VWS V13.01,2013-01-29 05:31:00,
2013-01-29 00:32:00,73.8,66.7,30.24,ENE,66,1.6,5.9,78,0.00,,---,0.00,VWS V13.01,2013-01-29 05:32:00,
2013-01-29 00:33:00,73.8,66.7,30.24,East,87,2.1,4.1,78,0.00,,---,0.00,VWS V13.01,2013-01-29 05:33:00,
2013-01-29 00:34:00,73.8,66.7,30.24,ENE,73,0.5,2.3,78,0.00,,---,0.00,VWS V13.01,2013-01-29 05:34:00,
2013-01-29 00:35:00,73.6,66.5,30.24,East,94,4.3,4.3,78,0.00,,---,0.00,VWS V13.01,2013-01-29 05:35:00,
2013-01-29 00:36:00,73.8,66.7,30.24,East,79,3.3,4.9,78,0.00,,---,0.00,VWS V13.01,2013-01-29 05:36:00,
2013-01-29 00:37:00,73.8,66.7,30.24,NE,56,1.1,4.1,78,0.00,,---,0.00,VWS V13.01,2013-01-29 05:37:00,
2013-01-29 00:38:00,73.6,66.5,30.24,NNE,20,1.7,3.9,79,0.00,,---,0.00,VWS V13.01,2013-01-29 05:38:00,
2013-01-29 00:39:00,73.7,66.6,30.24,ENE,66,1.5,3.0,78,0.00,,---,0.00,VWS V13.01,2013-01-29 05:39:00,
2013-01-29 00:40:00,73.5,66.4,30.24,ENE,58,3.9,3.9,78,0.00,,---,0.00,VWS V13.01,2013-01-29 05:40:00,
2013-01-29 00:41:00,73.5,66.4,30.24,NE,46,5.0,6.5,79,0.00,,---,0.00,VWS V13.01,2013-01-29 05:41:00,
2013-01-29 00:42:00,73.6,66.6,30.24,East,79,2.5,7.3,79,0.00,,---,0.00,VWS V13.01,2013-01-29 05:42:00,
2013-01-29 00:43:00,73.7,66.7,30.24,East,83,2.1,4.0,79,0.00,,---,0.00,VWS V13.01,2013-01-29 05:43:00,
2013-01-29 00:44:00,73.5,66.4,30.24,East,93,3.9,6.5,78,0.00,,---,0.00,VWS V13.01,2013-01-29 05:44:00,
2013-01-29 00:45:00,73.6,66.4,30.24,ENE,76,3.0,4.7,78,0.00,,---,0.00,VWS V13.01,2013-01-29 05:45:00,
2013-01-29 00:46:00,73.5,66.3,30.24,East,100,2.1,4.7,78,0.00,,---,0.00,VWS V13.01,2013-01-29 05:46:00,
2013-01-29 00:47:00,73.5,66.3,30.24,East,79,3.0,4.8,78,0.00,,---,0.00,VWS V13.01,2013-01-29 05:47:00,
2013-01-29 00:48:00,73.6,66.4,30.24,NE,49,1.1,4.4,78,0.00,,---,0.00,VWS V13.01,2013-01-29 05:48:00,
2013-01-29 00:49:00,73.4,66.2,30.24,East,91,4.3,5.1,78,0.00,,---,0.00,VWS V13.01,2013-01-29 05:49:00,
2013-01-29 00:50:00,73.8,66.6,30.24,NE,56,3.5,4.3,78,0.00,,---,0.00,VWS V13.01,2013-01-29 05:50:00,
2013-01-29 00:51:00,73.6,66.4,30.24,East,87,3.0,5.2,78,0.00,,---,0.00,VWS V13.01,2013-01-29 05:51:00,
2013-01-29 00:52:00,73.7,66.5,30.24,ENE,65,1.6,3.0,78,0.00,,---,0.00,VWS V13.01,2013-01-29 05:52:00,
2013-01-29 00:53:00,73.6,66.4,30.24,ENE,68,1.2,2.3,78,0.00,,---,0.00,VWS V13.01,2013-01-29 05:53:00,
2013-01-29 00:54:00,73.6,66.4,30.24,ENE,62,0.8,5.5,78,0.00,,---,0.00,VWS V13.01,2013-01-29 05:54:00,
2013-01-29 00:55:00,73.6,66.4,30.24,ENE,69,2.0,4.0,78,0.00,,---,0.00,VWS V13.01,2013-01-29 05:55:00,
2013-01-29 00:56:00,73.6,66.4,30.24,ESE,104,1.6,4.0,78,0.00,,---,0.00,VWS V13.01,2013-01-29 05:56:00,
2013-01-29 00:57:00,73.8,66.6,30.24,East,98,2.2,4.2,78,0.00,,---,0.00,VWS V13.01,2013-01-29 05:57:00,
2013-01-29 00:58:00,73.5,66.3,30.24,East,97,1.9,5.2,78,0.00,,---,0.00,VWS V13.01,2013-01-29 05:58:00,
2013-01-29 00:59:00,73.6,66.4,30.24,ENE,72,0.4,1.9,78,0.00,,---,0.00,VWS V13.01,2013-01-29 05:59:00,
2013-01-29 01:00:00,73.7,66.6,30.23,South,177,4.0,4.0,78,0.00,,---,0.00,VWS V13.01,2013-01-29 06:00:00,
2013-01-29 01:01:00,73.6,66.5,30.23,East,80,2.1,4.1,78,0.00,,---,0.00,VWS V13.01,2013-01-29 06:01:00,
2013-01-29 01:02:00,73.5,66.4,30.23,NE,51,1.9,4.5,79,0.00,,---,0.00,VWS V13.01,2013-01-29 06:02:00,
2013-01-29 01:03:00,73.5,66.4,30.23,ENE,62,2.5,3.6,79,0.00,,---,0.00,VWS V13.01,2013-01-29 06:03:00,
2013-01-29 01:04:00,73.4,66.3,30.23,ENE,73,3.5,4.4,78,0.00,,---,0.00,VWS V13.01,2013-01-29 06:04:00,
2013-01-29 01:05:00,73.5,66.4,30.23,East,82,3.4,6.0,78,0.00,,---,0.00,VWS V13.01,2013-01-29 06:05:00,
2013-01-29 01:06:00,73.5,66.4,30.23,NE,55,6.0,7.1,78,0.00,,---,0.00,VWS V13.01,2013-01-29 06:06:00,
2013-01-29 01:07:00,73.6,66.5,30.23,East,83,3.2,6.0,78,0.00,,---,0.00,VWS V13.01,2013-01-29 06:07:00,
2013-01-29 01:08:00,73.6,66.5,30.23,NE,52,2.2,4.3,78,0.00,,---,0.00,VWS V13.01,2013-01-29 06:08:00,
2013-01-29 01:09:00,73.5,66.4,30.23,ENE,63,3.5,5.5,78,0.00,,---,0.00,VWS V13.01,2013-01-29 06:09:00,
2013-01-29 01:10:00,73.6,66.4,30.23,ENE,65,3.1,6.0,78,0.00,,---,0.00,VWS V13.01,2013-01-29 06:10:00,
2013-01-29 01:11:00,73.6,66.4,30.23,East,79,3.2,6.0,78,0.00,,---,0.00,VWS V13.01,2013-01-29 06:11:00,
2013-01-29 01:12:00,73.6,66.4,30.23,ENE,65,2.3,6.2,78,0.00,,---,0.00,VWS V13.01,2013-01-29 06:12:00,
2013-01-29 01:13:00,73.5,66.3,30.23,ESE,107,5.2,8.0,78,0.00,,---,0.00,VWS V13.01,2013-01-29 06:13:00,
2013-01-29 01:14:00,73.7,66.5,30.23,ENE,73,2.9,6.9,78,0.00,,---,0.00,VWS V13.01,2013-01-29 06:14:00,
2013-01-29 01:15:00,73.5,66.3,30.23,East,79,4.7,6.0,78,0.00,,---,0.00,VWS V13.01,2013-01-29 06:15:00,
2013-01-29 01:16:00,73.6,66.4,30.23,East,93,4.7,6.0,78,0.00,,---,0.00,VWS V13.01,2013-01-29 06:16:00,
2013-01-29 01:17:00,73.6,66.3,30.23,East,83,2.7,4.7,78,0.00,,---,0.00,VWS V13.01,2013-01-29 06:17:00,
2013-01-29 01:18:00,73.5,66.2,30.23,NE,55,1.6,4.6,78,0.00,,---,0.00,VWS V13.01,2013-01-29 06:18:00,
2013-01-29 01:19:00,73.6,66.3,30.23,ENE,72,1.6,4.8,78,0.00,,---,0.00,VWS V13.01,2013-01-29 06:19:00,
2013-01-29 01:20:00,73.8,66.6,30.23,NE,53,6.2,6.2,78,0.00,,---,0.00,VWS V13.01,2013-01-29 06:20:00,
2013-01-29 01:21:00,73.6,66.4,30.23,ENE,65,2.9,6.2,78,0.00,,---,0.00,VWS V13.01,2013-01-29 06:21:00,
2013-01-29 01:22:00,73.7,66.5,30.23,NE,48,1.7,2.9,78,0.00,,---,0.00,VWS V13.01,2013-01-29 06:22:00,
2013-01-29 01:23:00,73.5,66.3,30.23,SE,131,3.5,5.5,78,0.00,,---,0.00,VWS V13.01,2013-01-29 06:23:00,
2013-01-29 01:24:00,73.6,66.4,30.23,NE,46,3.2,3.8,78,0.00,,---,0.00,VWS V13.01,2013-01-29 06:24:00,
2013-01-29 01:25:00,73.6,66.4,30.23,NE,39,4.4,7.2,78,0.00,,---,0.00,VWS V13.01,2013-01-29 06:25:00,
2013-01-29 01:26:00,73.6,66.5,30.23,ENE,58,2.7,7.2,78,0.00,,---,0.00,VWS V13.01,2013-01-29 06:26:00,
2013-01-29 01:27:00,73.6,66.5,30.23,ENE,66,4.2,7.9,78,0.00,,---,0.00,VWS V13.01,2013-01-29 06:27:00,
2013-01-29 01:28:00,73.5,66.4,30.23,East,83,1.9,6.0,78,0.00,,---,0.00,VWS V13.01,2013-01-29 06:28:00,
2013-01-29 01:29:00,73.5,66.3,30.23,ENE,69,3.1,3.1,78,0.00,,---,0.00,VWS V13.01,2013-01-29 06:29:00,
2013-01-29 01:30:00,73.5,66.4,30.23,SE,129,3.1,3.5,78,0.00,,---,0.00,VWS V13.01,2013-01-29 06:30:00,
2013-01-29 01:31:00,73.6,66.5,30.23,ENE,73,3.1,3.5,78,0.00,,---,0.00,VWS V13.01,2013-01-29 06:31:00,
2013-01-29 01:32:00,73.5,66.4,30.23,ENE,68,2.5,4.2,78,0.00,,---,0.00,VWS V13.01,2013-01-29 06:32:00,
2013-01-29 01:33:00,73.6,66.5,30.23,East,80,2.3,5.5,78,0.00,,---,0.00,VWS V13.01,2013-01-29 06:33:00,
2013-01-29 01:34:00,73.5,66.5,30.23,East,97,1.8,5.3,79,0.00,,---,0.00,VWS V13.01,2013-01-29 06:34:00,
2013-01-29 01:35:00,73.5,66.4,30.23,ENE,73,2.7,4.6,79,0.00,,---,0.00,VWS V13.01,2013-01-29 06:35:00,
2013-01-29 01:36:00,73.5,66.4,30.23,ENE,60,4.7,5.0,79,0.00,,---,0.00,VWS V13.01,2013-01-29 06:36:00,
2013-01-29 01:37:00,73.4,66.4,30.23,East,80,3.4,7.0,79,0.00,,---,0.00,VWS V13.01,2013-01-29 06:37:00,
2013-01-29 01:38:00,73.6,66.5,30.23,ESE,110,2.3,3.4,79,0.00,,---,0.00,VWS V13.01,2013-01-29 06:38:00,
2013-01-29 01:39:00,73.5,66.4,30.23,NE,41,1.8,3.7,78,0.00,,---,0.00,VWS V13.01,2013-01-29 06:39:00,
2013-01-29 01:40:00,73.8,66.7,30.23,NE,46,2.2,6.6,78,0.00,,---,0.00,VWS V13.01,2013-01-29 06:40:00,
2013-01-29 01:41:00,73.5,66.4,30.23,East,86,3.0,6.6,78,0.00,,---,0.00,VWS V13.01,2013-01-29 06:41:00,
2013-01-29 01:42:00,73.4,66.3,30.23,ENE,77,2.0,3.0,78,0.00,,---,0.00,VWS V13.01,2013-01-29 06:42:00,
2013-01-29 01:43:00,73.5,66.4,30.22,NE,55,1.8,2.5,79,0.00,,---,0.00,VWS V13.01,2013-01-29 06:43:00,
2013-01-29 01:44:00,73.4,66.3,30.22,East,84,1.6,4.3,79,0.00,,---,0.00,VWS V13.01,2013-01-29 06:44:00,
2013-01-29 01:45:00,73.5,66.4,30.22,ENE,59,1.8,3.4,79,0.00,,---,0.00,VWS V13.01,2013-01-29 06:45:00,
2013-01-29 01:46:00,73.6,66.6,30.22,East,93,2.4,3.4,79,0.00,,---,0.00,VWS V13.01,2013-01-29 06:46:00,
2013-01-29 01:47:00,73.6,66.6,30.22,NE,51,3.4,3.7,79,0.00,,---,0.00,VWS V13.01,2013-01-29 06:47:00,
2013-01-29 01:48:00,73.4,66.3,30.22,NE,46,5.0,5.7,79,0.00,,---,0.00,VWS V13.01,2013-01-29 06:48:00,
2013-01-29 01:49:00,73.3,66.2,30.22,NE,46,6.3,10.8,79,0.00,,---,0.00,VWS V13.01,2013-01-29 06:49:00,
2013-01-29 01:50:00,73.4,66.3,30.22,NE,46,3.5,3.5,79,0.00,,---,0.00,VWS V13.01,2013-01-29 06:50:00,
2013-01-29 01:51:00,73.5,66.4,30.22,ENE,63,3.0,3.8,78,0.00,,---,0.00,VWS V13.01,2013-01-29 06:51:00,
2013-01-29 01:52:00,73.2,66.1,30.22,East,91,5.2,6.5,78,0.00,,---,0.00,VWS V13.01,2013-01-29 06:52:00,
2013-01-29 01:53:00,73.4,66.3,30.22,ENE,66,5.3,10.3,78,0.00,,---,0.00,VWS V13.01,2013-01-29 06:53:00,
2013-01-29 01:54:00,73.4,66.2,30.22,ENE,66,2.4,6.6,78,0.00,,---,0.00,VWS V13.01,2013-01-29 06:54:00,
2013-01-29 01:55:00,73.4,66.2,30.22,NE,48,2.2,7.2,78,0.00,,---,0.00,VWS V13.01,2013-01-29 06:55:00,
2013-01-29 01:56:00,73.4,66.2,30.22,East,82,2.0,7.2,78,0.00,,---,0.00,VWS V13.01,2013-01-29 06:56:00,
2013-01-29 01:57:00,73.4,66.2,30.22,ENE,62,2.1,4.2,78,0.00,,---,0.00,VWS V13.01,2013-01-29 06:57:00,
2013-01-29 01:58:00,73.5,66.3,30.22,ENE,63,0.9,3.9,78,0.00,,---,0.00,VWS V13.01,2013-01-29 06:58:00,
2013-01-29 01:59:00,73.4,66.2,30.22,North,1,2.7,3.1,78,0.00,,---,0.00,VWS V13.01,2013-01-29 06:59:00,
2013-01-29 02:00:00,73.3,66.1,30.22,ENE,70,4.1,7.0,78,0.00,,---,0.00,VWS V13.01,2013-01-29 07:00:00,
2013-01-29 02:01:00,73.3,66.1,30.22,East,96,3.4,7.0,78,0.00,,---,0.00,VWS V13.01,2013-01-29 07:01:00,
2013-01-29 02:02:00,73.2,65.9,30.22,ENE,68,5.5,10.8,78,0.00,,---,0.00,VWS V13.01,2013-01-29 07:02:00,
2013-01-29 02:03:00,73.3,66.0,30.22,East,93,3.4,5.5,78,0.00,,---,0.00,VWS V13.01,2013-01-29 07:03:00,
2013-01-29 02:04:00,73.3,65.9,30.21,East,86,3.0,5.2,78,0.00,,---,0.00,VWS V13.01,2013-01-29 07:04:00,
2013-01-29 02:05:00,73.2,65.8,30.22,NE,56,1.6,3.4,78,0.00,,---,0.00,VWS V13.01,2013-01-29 07:05:00,
2013-01-29 02:06:00,73.4,66.0,30.22,East,89,1.7,3.4,78,0.00,,---,0.00,VWS V13.01,2013-01-29 07:06:00,
2013-01-29 02:07:00,73.3,65.9,30.21,East,89,0.9,2.9,78,0.00,,---,0.00,VWS V13.01,2013-01-29 07:07:00,
2013-01-29 02:08:00,73.4,66.0,30.21,East,93,1.6,2.9,78,0.00,,---,0.00,VWS V13.01,2013-01-29 07:08:00,
2013-01-29 02:09:00,73.4,66.0,30.21,SE,138,1.6,3.6,78,0.00,,---,0.00,VWS V13.01,2013-01-29 07:09:00,
2013-01-29 02:10:00,73.2,65.9,30.21,East,79,3.2,4.0,78,0.00,,---,0.00,VWS V13.01,2013-01-29 07:10:00,
2013-01-29 02:11:00,73.2,65.9,30.21,NE,53,2.7,4.0,78,0.00,,---,0.00,VWS V13.01,2013-01-29 07:11:00,
2013-01-29 02:12:00,73.3,66.0,30.21,ENE,65,0.8,3.9,78,0.00,,---,0.00,VWS V13.01,2013-01-29 07:12:00,
2013-01-29 02:13:00,73.4,66.1,30.21,ENE,62,3.2,3.5,78,0.00,,---,0.00,VWS V13.01,2013-01-29 07:13:00,
2013-01-29 02:14:00,73.3,66.0,30.21,NE,41,3.6,3.9,78,0.00,,---,0.00,VWS V13.01,2013-01-29 07:14:00,
2013-01-29 02:15:00,73.4,66.1,30.21,ESE,120,1.9,5.4,78,0.00,,---,0.00,VWS V13.01,2013-01-29 07:15:00,
2013-01-29 02:16:00,73.4,66.1,30.21,ESE,117,1.7,5.4,78,0.00,,---,0.00,VWS V13.01,2013-01-29 07:16:00,
2013-01-29 02:17:00,73.3,66.0,30.21,ENE,72,3.7,4.1,78,0.00,,---,0.00,VWS V13.01,2013-01-29 07:17:00,
2013-01-29 02:18:00,73.2,66.0,30.21,NNE,32,7.8,9.1,78,0.00,,---,0.00,VWS V13.01,2013-01-29 07:18:00,
2013-01-29 02:19:00,73.3,66.0,30.21,SE,132,4.4,9.5,78,0.00,,---,0.00,VWS V13.01,2013-01-29 07:19:00,
2013-01-29 02:20:00,73.3,66.1,30.21,NE,49,3.6,9.3,78,0.00,,---,0.00,VWS V13.01,2013-01-29 07:20:00,
2013-01-29 02:21:00,73.3,66.1,30.21,ENE,60,4.0,9.3,78,0.00,,---,0.00,VWS V13.01,2013-01-29 07:21:00,
2013-01-29 02:22:00,73.3,66.1,30.20,NE,41,6.8,8.8,78,0.00,,---,0.00,VWS V13.01,2013-01-29 07:22:00,
2013-01-29 02:23:00,73.3,66.1,30.20,East,93,5.7,6.8,78,0.00,,---,0.00,VWS V13.01,2013-01-29 07:23:00,
2013-01-29 02:24:00,73.2,66.0,30.21,East,86,6.3,7.0,78,0.00,,---,0.00,VWS V13.01,2013-01-29 07:24:00,
2013-01-29 02:25:00,73.3,66.1,30.21,ENE,68,2.1,3.7,78,0.00,,---,0.00,VWS V13.01,2013-01-29 07:25:00,
2013-01-29 02:26:00,73.3,66.1,30.21,NE,46,2.0,3.7,78,0.00,,---,0.00,VWS V13.01,2013-01-29 07:26:00,
2013-01-29 02:27:00,73.2,66.0,30.21,ENE,77,1.7,2.2,78,0.00,,---,0.00,VWS V13.01,2013-01-29 07:27:00,
2013-01-29 02:28:00,73.4,66.2,30.21,ENE,69,2.2,3.6,78,0.00,,---,0.00,VWS V13.01,2013-01-29 07:28:00,
2013-01-29 02:29:00,73.3,66.2,30.21,NE,37,2.2,4.8,78,0.00,,---,0.00,VWS V13.01,2013-01-29 07:29:00,
2013-01-29 02:30:00,73.3,66.2,30.21,NE,37,1.8,5.0,78,0.00,,---,0.00,VWS V13.01,2013-01-29 07:30:00,
2013-01-29 02:31:00,73.3,66.2,30.21,NE,37,1.8,5.0,78,0.00,,---,0.00,VWS V13.01,2013-01-29 07:31:00,
2013-01-29 02:32:00,73.4,66.3,30.21,NNE,27,1.1,3.6,78,0.00,,---,0.00,VWS V13.01,2013-01-29 07:32:00,
2013-01-29 02:33:00,73.2,66.1,30.21,East,84,1.9,3.7,78,0.00,,---,0.00,VWS V13.01,2013-01-29 07:33:00,
2013-01-29 02:34:00,73.3,66.2,30.21,East,89,4.7,4.8,78,0.00,,---,0.00,VWS V13.01,2013-01-29 07:34:00,
2013-01-29 02:35:00,73.2,66.1,30.21,ENE,68,1.3,4.7,78,0.00,,---,0.00,VWS V13.01,2013-01-29 07:35:00,
2013-01-29 02:36:00,73.1,66.0,30.21,ENE,68,1.6,1.6,78,0.00,,---,0.00,VWS V13.01,2013-01-29 07:36:00,
2013-01-29 02:37:00,73.3,66.2,30.21,SSE,148,7.2,7.2,78,0.00,,---,0.00,VWS V13.01,2013-01-29 07:37:00,
2013-01-29 02:38:00,73.1,66.1,30.21,ESE,103,4.2,7.2,79,0.00,,---,0.00,VWS V13.01,2013-01-29 07:38:00,
2013-01-29 02:39:00,73.2,66.2,30.21,East,80,2.2,4.2,79,0.00,,---,0.00,VWS V13.01,2013-01-29 07:39:00,
2013-01-29 02:40:00,73.1,66.0,30.21,ENE,66,2.9,4.5,78,0.00,,---,0.00,VWS V13.01,2013-01-29 07:40:00,
2013-01-29 02:41:00,73.1,66.0,30.21,ENE,66,2.9,4.5,78,0.00,,---,0.00,VWS V13.01,2013-01-29 07:41:00,
2013-01-29 02:42:00,73.3,66.2,30.21,SE,124,1.2,3.9,78,0.00,,---,0.00,VWS V13.01,2013-01-29 07:42:00,
2013-01-29 02:43:00,73.4,66.3,30.21,ENE,69,1.4,3.9,78,0.00,,---,0.00,VWS V13.01,2013-01-29 07:43:00,
2013-01-29 02:44:00,73.1,66.1,30.21,ENE,73,2.5,3.1,79,0.00,,---,0.00,VWS V13.01,2013-01-29 07:44:00,
2013-01-29 02:45:00,73.2,66.2,30.21,NNE,22,1.0,2.7,79,0.00,,---,0.00,VWS V13.01,2013-01-29 07:45:00,
2013-01-29 02:46:00,73.1,66.1,30.21,NE,49,3.2,3.2,79,0.00,,---,0.00,VWS V13.01,2013-01-29 07:46:00,
2013-01-29 02:47:00,73.1,66.1,30.21,East,86,4.0,5.0,79,0.00,,---,0.00,VWS V13.01,2013-01-29 07:47:00,
2013-01-29 02:48:00,73.1,66.1,30.21,SE,124,2.7,4.0,79,0.00,,---,0.00,VWS V13.01,2013-01-29 07:48:00,
2013-01-29 02:49:00,73.0,66.0,30.21,NE,55,1.2,5.0,79,0.00,,---,0.00,VWS V13.01,2013-01-29 07:49:00,
2013-01-29 02:50:00,73.1,66.2,30.21,ENE,62,1.7,2.5,79,0.00,,---,0.00,VWS V13.01,2013-01-29 07:50:00,
2013-01-29 02:51:00,73.2,66.2,30.21,ESE,105,5.6,5.6,79,0.00,,---,0.00,VWS V13.01,2013-01-29 07:51:00,
2013-01-29 02:52:00,73.1,66.1,30.21,NE,51,3.7,5.6,79,0.00,,---,0.00,VWS V13.01,2013-01-29 07:52:00,
2013-01-29 02:53:00,73.1,66.1,30.21,ESE,110,2.5,6.3,79,0.00,,---,0.00,VWS V13.01,2013-01-29 07:53:00,
2013-01-29 02:54:00,73.1,65.9,30.21,East,90,1.9,9.3,78,0.00,,---,0.00,VWS V13.01,2013-01-29 07:54:00,
2013-01-29 02:55:00,73.1,65.9,30.21,SE,124,3.6,5.2,78,0.00,,---,0.00,VWS V13.01,2013-01-29 07:55:00,
2013-01-29 02:56:00,73.1,65.8,30.21,NE,45,3.4,4.7,78,0.00,,---,0.00,VWS V13.01,2013-01-29 07:56:00,
2013-01-29 02:57:00,73.1,65.8,30.20,East,90,4.1,7.7,78,0.00,,---,0.00,VWS V13.01,2013-01-29 07:57:00,
2013-01-29 02:58:00,73.2,65.9,30.20,ESE,121,5.2,5.2,78,0.00,,---,0.00,VWS V13.01,2013-01-29 07:58:00,
2013-01-29 02:59:00,73.3,65.9,30.20,East,100,4.8,5.7,78,0.00,,---,0.00,VWS V13.01,2013-01-29 07:59:00,
2013-01-29 03:00:00,73.3,65.9,30.20,ENE,62,1.7,4.8,78,0.00,,---,0.00,VWS V13.01,2013-01-29 08:00:00,
2013-01-29 03:01:00,73.0,65.6,30.20,East,93,0.6,2.0,78,0.00,,---,0.00,VWS V13.01,2013-01-29 08:01:00,
2013-01-29 03:02:00,73.1,65.7,30.20,ENE,72,1.8,2.9,78,0.00,,---,0.00,VWS V13.01,2013-01-29 08:02:00,
2013-01-29 03:03:00,73.2,65.8,30.20,East,79,3.7,6.0,78,0.00,,---,0.00,VWS V13.01,2013-01-29 08:03:00,
2013-01-29 03:04:00,73.1,65.7,30.20,ENE,76,1.2,4.0,78,0.00,,---,0.00,VWS V13.01,2013-01-29 08:04:00,
2013-01-29 03:05:00,73.1,65.6,30.20,East,98,1.3,2.8,77,0.00,,---,0.00,VWS V13.01,2013-01-29 08:05:00,
2013-01-29 03:06:00,73.2,65.7,30.20,ENE,70,1.8,2.2,77,0.00,,---,0.00,VWS V13.01,2013-01-29 08:06:00,
2013-01-29 03:07:00,73.2,65.7,30.20,ENE,76,1.6,2.7,77,0.00,,---,0.00,VWS V13.01,2013-01-29 08:07:00,
2013-01-29 03:08:00,73.1,65.6,30.20,East,97,1.6,2.3,77,0.00,,---,0.00,VWS V13.01,2013-01-29 08:08:00,
2013-01-29 03:09:00,73.3,65.8,30.20,East,80,6.6,6.8,77,0.00,,---,0.00,VWS V13.01,2013-01-29 08:09:00,
2013-01-29 03:10:00,73.1,65.6,30.20,East,79,4.5,7.6,77,0.00,,---,0.00,VWS V13.01,2013-01-29 08:10:00,
2013-01-29 03:11:00,73.1,65.6,30.20,ENE,73,5.0,5.6,77,0.00,,---,0.00,VWS V13.01,2013-01-29 08:11:00,
2013-01-29 03:12:00,73.1,65.6,30.20,ENE,70,6.1,9.3,77,0.00,,---,0.00,VWS V13.01,2013-01-29 08:12:00,
2013-01-29 03:13:00,73.3,65.8,30.20,NE,42,4.6,9.3,77,0.00,,---,0.00,VWS V13.01,2013-01-29 08:13:00,
2013-01-29 03:14:00,73.2,65.7,30.20,SE,141,6.0,6.0,77,0.00,,---,0.00,VWS V13.01,2013-01-29 08:14:00,
2013-01-29 03:15:00,73.2,65.7,30.20,East,96,1.9,6.2,77,0.00,,---,0.00,VWS V13.01,2013-01-29 08:15:00,
2013-01-29 03:16:00,73.2,65.7,30.20,NE,39,0.0,0.0,77,0.00,,---,0.00,VWS V13.01,2013-01-29 08:16:00,
2013-01-29 03:17:00,73.2,65.7,30.20,NE,39,0.0,0.0,77,0.00,,---,0.00,VWS V13.01,2013-01-29 08:17:00,
2013-01-29 03:18:00,73.4,65.9,30.20,NE,38,3.2,3.5,78,0.00,,---,0.00,VWS V13.01,2013-01-29 08:18:00,
2013-01-29 03:19:00,73.2,65.8,30.20,NE,46,2.7,5.0,78,0.00,,---,0.00,VWS V13.01,2013-01-29 08:19:00,
2013-01-29 03:20:00,73.2,65.8,30.20,ESE,121,0.0,2.7,78,0.00,,---,0.00,VWS V13.01,2013-01-29 08:20:00,
2013-01-29 03:21:00,73.1,65.8,30.20,ENE,73,1.1,2.4,78,0.00,,---,0.00,VWS V13.01,2013-01-29 08:21:00,
2013-01-29 03:22:00,73.1,65.8,30.20,NE,38,1.4,2.4,78,0.00,,---,0.00,VWS V13.01,2013-01-29 08:22:00,
2013-01-29 03:23:00,73.2,66.0,30.20,East,94,2.0,5.4,78,0.00,,---,0.00,VWS V13.01,2013-01-29 08:23:00,
2013-01-29 03:24:00,73.3,66.1,30.20,East,82,2.4,2.4,78,0.00,,---,0.00,VWS V13.01,2013-01-29 08:24:00,
2013-01-29 03:25:00,73.2,66.1,30.20,ENE,70,3.7,4.3,78,0.00,,---,0.00,VWS V13.01,2013-01-29 08:25:00,
2013-01-29 03:26:00,73.1,66.0,30.21,East,87,1.0,2.9,78,0.00,,---,0.00,VWS V13.01,2013-01-29 08:26:00,
2013-01-29 03:27:00,73.2,66.1,30.21,NE,49,0.8,2.9,78,0.00,,---,0.00,VWS V13.01,2013-01-29 08:27:00,
2013-01-29 03:28:00,73.1,66.1,30.21,ENE,60,2.7,7.6,79,0.00,,---,0.00,VWS V13.01,2013-01-29 08:28:00,
2013-01-29 03:29:00,73.3,66.3,30.21,ENE,73,1.9,2.7,79,0.00,,---,0.00,VWS V13.01,2013-01-29 08:29:00,
2013-01-29 03:30:00,73.2,66.3,30.20,ENE,66,6.2,6.2,79,0.00,,---,0.00,VWS V13.01,2013-01-29 08:30:00,
2013-01-29 03:31:00,73.2,66.4,30.21,ENE,69,3.4,5.8,79,0.00,,---,0.00,VWS V13.01,2013-01-29 08:31:00,
2013-01-29 03:32:00,73.2,66.4,30.21,SE,135,3.2,5.8,79,0.00,,---,0.00,VWS V13.01,2013-01-29 08:32:00,
2013-01-29 03:33:00,73.2,66.3,30.21,East,84,1.4,4.3,79,0.00,,---,0.00,VWS V13.01,2013-01-29 08:33:00,
2013-01-29 03:34:00,73.0,66.1,30.21,NE,46,2.1,8.1,79,0.00,,---,0.00,VWS V13.01,2013-01-29 08:34:00,
2013-01-29 03:35:00,73.1,66.2,30.21,East,83,3.9,3.9,79,0.00,,---,0.00,VWS V13.01,2013-01-29 08:35:00,
2013-01-29 03:36:00,73.1,66.3,30.20,NE,53,4.4,4.4,79,0.00,,---,0.00,VWS V13.01,2013-01-29 08:36:00,
2013-01-29 03:37:00,73.1,66.3,30.20,NE,52,2.9,4.4,79,0.00,,---,0.00,VWS V13.01,2013-01-29 08:37:00,
2013-01-29 03:38:00,73.2,66.4,30.21,East,80,0.9,3.3,79,0.00,,---,0.00,VWS V13.01,2013-01-29 08:38:00,
2013-01-29 03:39:00,73.1,66.3,30.21,ESE,120,1.5,4.1,79,0.00,,---,0.00,VWS V13.01,2013-01-29 08:39:00,
2013-01-29 03:40:00,73.0,66.2,30.21,ENE,70,2.3,3.5,79,0.00,,---,0.00,VWS V13.01,2013-01-29 08:40:00,
2013-01-29 03:41:00,73.2,66.5,30.20,ENE,66,0.9,2.4,80,0.00,,---,0.00,VWS V13.01,2013-01-29 08:41:00,
2013-01-29 03:42:00,73.2,66.4,30.20,ENE,68,1.6,2.4,79,0.00,,---,0.00,VWS V13.01,2013-01-29 08:42:00,
2013-01-29 03:43:00,73.1,66.3,30.20,ENE,63,0.0,1.6,79,0.00,,---,0.00,VWS V13.01,2013-01-29 08:43:00,
2013-01-29 03:44:00,73.0,66.2,30.20,ESE,103,8.2,9.4,79,0.00,,---,0.00,VWS V13.01,2013-01-29 08:44:00,
2013-01-29 03:45:00,73.1,66.3,30.20,ENE,66,2.2,8.6,79,0.00,,---,0.00,VWS V13.01,2013-01-29 08:45:00,
2013-01-29 03:46:00,73.0,66.2,30.20,ENE,59,2.9,4.0,79,0.00,,---,0.00,VWS V13.01,2013-01-29 08:46:00,
2013-01-29 03:47:00,73.0,66.2,30.20,SE,139,2.2,4.0,79,0.00,,---,0.00,VWS V13.01,2013-01-29 08:47:00,
2013-01-29 03:48:00,73.1,66.3,30.20,East,91,3.9,3.9,79,0.00,,---,0.00,VWS V13.01,2013-01-29 08:48:00,
2013-01-29 03:49:00,73.0,66.2,30.20,ESE,122,2.1,4.8,79,0.00,,---,0.00,VWS V13.01,2013-01-29 08:49:00,
2013-01-29 03:50:00,73.0,66.2,30.20,East,86,3.3,4.4,79,0.00,,---,0.00,VWS V13.01,2013-01-29 08:50:00,
2013-01-29 03:51:00,72.9,66.1,30.20,East,101,4.7,4.7,79,0.00,,---,0.00,VWS V13.01,2013-01-29 08:51:00,
2013-01-29 03:52:00,73.1,66.2,30.20,ESE,115,4.4,5.0,79,0.00,,---,0.00,VWS V13.01,2013-01-29 08:52:00,
2013-01-29 03:53:00,73.0,66.2,30.20,NNE,31,5.8,6.2,79,0.00,,---,0.00,VWS V13.01,2013-01-29 08:53:00,
2013-01-29 03:54:00,73.0,66.1,30.20,ESE,104,4.8,10.4,79,0.00,,---,0.00,VWS V13.01,2013-01-29 08:54:00,
2013-01-29 03:55:00,73.0,66.0,30.20,SE,135,4.3,4.8,79,0.00,,---,0.00,VWS V13.01,2013-01-29 08:55:00,
2013-01-29 03:56:00,73.0,65.9,30.20,East,93,1.6,9.3,78,0.00,,---,0.00,VWS V13.01,2013-01-29 08:56:00,
2013-01-29 03:57:00,73.1,66.0,30.20,East,80,4.3,9.3,78,0.00,,---,0.00,VWS V13.01,2013-01-29 08:57:00,
2013-01-29 03:58:00,73.1,66.0,30.20,ESE,103,5.2,5.3,78,0.00,,---,0.00,VWS V13.01,2013-01-29 08:58:00,
2013-01-29 03:59:00,73.2,66.1,30.20,ENE,66,2.1,5.2,78,0.00,,---,0.00,VWS V13.01,2013-01-29 08:59:00,
2013-01-29 04:00:00,73.3,66.1,30.20,ESE,108,4.0,4.5,78,0.00,,---,0.00,VWS V13.01,2013-01-29 09:00:00,
2013-01-29 04:01:00,73.2,66.0,30.20,ENE,72,2.0,3.5,78,0.00,,---,0.00,VWS V13.01,2013-01-29 09:01:00,
2013-01-29 04:02:00,73.2,66.0,30.20,ESE,103,2.2,3.9,78,0.00,,---,0.00,VWS V13.01,2013-01-29 09:02:00,
2013-01-29 04:03:00,73.3,66.1,30.20,SE,134,6.1,7.0,78,0.00,,---,0.00,VWS V13.01,2013-01-29 09:03:00,
2013-01-29 04:04:00,73.5,66.2,30.20,ENE,70,4.1,6.1,78,0.00,,---,0.00,VWS V13.01,2013-01-29 09:04:00,
2013-01-29 04:05:00,73.2,66.0,30.20,ENE,73,0.9,5.2,78,0.00,,---,0.00,VWS V13.01,2013-01-29 09:05:00,
2013-01-29 04:06:00,73.1,65.8,30.20,ESE,103,2.1,3.7,78,0.00,,---,0.00,VWS V13.01,2013-01-29 09:06:00,
2013-01-29 04:07:00,73.2,66.0,30.20,ENE,60,1.7,3.7,78,0.00,,---,0.00,VWS V13.01,2013-01-29 09:07:00,
2013-01-29 04:08:00,73.2,66.0,30.20,ENE,58,0.6,2.1,78,0.00,,---,0.00,VWS V13.01,2013-01-29 09:08:00,
2013-01-29 04:09:00,73.4,66.2,30.20,ENE,76,3.3,3.3,78,0.00,,---,0.00,VWS V13.01,2013-01-29 09:09:00,
2013-01-29 04:10:00,73.1,65.8,30.20,East,86,3.0,9.1,78,0.00,,---,0.00,VWS V13.01,2013-01-29 09:10:00,
2013-01-29 04:11:00,73.1,65.8,30.20,NE,38,3.0,3.7,78,0.00,,---,0.00,VWS V13.01,2013-01-29 09:11:00,
2013-01-29 04:12:00,73.3,66.1,30.20,NNE,27,1.7,3.7,78,0.00,,---,0.00,VWS V13.01,2013-01-29 09:12:00,
2013-01-29 04:13:00,73.1,65.9,30.20,East,79,3.2,7.6,78,0.00,,---,0.00,VWS V13.01,2013-01-29 09:13:00,
2013-01-29 04:14:00,73.2,66.0,30.20,East,87,3.5,6.6,78,0.00,,---,0.00,VWS V13.01,2013-01-29 09:14:00,
2013-01-29 04:15:00,73.2,66.0,30.20,ENE,62,3.0,3.5,78,0.00,,---,0.00,VWS V13.01,2013-01-29 09:15:00,
2013-01-29 04:16:00,73.1,65.9,30.20,ESE,112,2.1,3.6,78,0.00,,---,0.00,VWS V13.01,2013-01-29 09:16:00,
2013-01-29 04:17:00,73.1,65.9,30.20,ENE,72,2.1,3.6,78,0.00,,---,0.00,VWS V13.01,2013-01-29 09:17:00,
2013-01-29 04:18:00,73.1,65.9,30.20,ENE,59,1.5,5.2,78,0.00,,---,0.00,VWS V13.01,2013-01-29 09:18:00,
2013-01-29 04:19:00,73.1,65.9,30.20,NNE,31,1.3,2.9,78,0.00,,---,0.00,VWS V13.01,2013-01-29 09:19:00,
2013-01-29 04:20:00,73.0,65.8,30.20,ENE,62,1.1,2.4,78,0.00,,---,0.00,VWS V13.01,2013-01-29 09:20:00,
2013-01-29 04:21:00,72.9,65.8,30.20,NE,52,4.8,6.5,78,0.00,,---,0.00,VWS V13.01,2013-01-29 09:21:00,
2013-01-29 04:22:00,72.9,65.9,30.20,NE,52,1.6,6.5,79,0.00,,---,0.00,VWS V13.01,2013-01-29 09:22:00,
2013-01-29 04:23:00,73.0,66.0,30.20,East,79,4.6,5.5,79,0.00,,---,0.00,VWS V13.01,2013-01-29 09:23:00,
2013-01-29 04:24:00,73.1,66.1,30.20,East,91,1.4,6.2,79,0.00,,---,0.00,VWS V13.01,2013-01-29 09:24:00,
2013-01-29 04:25:00,73.1,66.1,30.20,NE,38,2.5,4.0,79,0.00,,---,0.00,VWS V13.01,2013-01-29 09:25:00,
2013-01-29 04:26:00,73.0,66.0,30.20,East,79,3.5,3.5,79,0.00,,---,0.00,VWS V13.01,2013-01-29 09:26:00,
2013-01-29 04:27:00,73.2,66.3,30.20,East,90,1.7,3.5,79,0.00,,---,0.00,VWS V13.01,2013-01-29 09:27:00,
2013-01-29 04:28:00,73.2,66.3,30.20,East,100,2.7,5.4,79,0.00,,---,0.00,VWS V13.01,2013-01-29 09:28:00,
2013-01-29 04:29:00,73.0,66.1,30.20,ESE,115,2.4,2.7,79,0.00,,---,0.00,VWS V13.01,2013-01-29 09:29:00,
2013-01-29 04:30:00,73.3,66.4,30.20,East,97,0.0,2.6,79,0.00,,---,0.00,VWS V13.01,2013-01-29 09:30:00,
2013-01-29 04:31:00,73.1,66.2,30.20,NE,46,2.3,6.2,79,0.00,,---,0.00,VWS V13.01,2013-01-29 09:31:00,
2013-01-29 04:32:00,73.1,66.2,30.20,NE,45,2.5,6.2,79,0.00,,---,0.00,VWS V13.01,2013-01-29 09:32:00,
2013-01-29 04:33:00,73.0,66.2,30.20,East,84,4.3,6.6,79,0.00,,---,0.00,VWS V13.01,2013-01-29 09:33:00,
2013-01-29 04:34:00,73.1,66.3,30.20,East,79,4.5,6.3,79,0.00,,---,0.00,VWS V13.01,2013-01-29 09:34:00,
2013-01-29 04:35:00,73.0,66.2,30.20,NE,48,3.4,8.4,79,0.00,,---,0.00,VWS V13.01,2013-01-29 09:35:00,
2013-01-29 04:36:00,73.0,66.2,30.20,NE,48,1.6,4.5,79,0.00,,---,0.00,VWS V13.01,2013-01-29 09:36:00,
2013-01-29 04:37:00,73.0,66.2,30.20,ENE,62,1.7,4.5,79,0.00,,---,0.00,VWS V13.01,2013-01-29 09:37:00,
2013-01-29 04:38:00,73.3,66.5,30.20,East,91,0.0,3.4,79,0.00,,---,0.00,VWS V13.01,2013-01-29 09:38:00,
2013-01-29 04:39:00,73.3,66.5,30.20,ESE,115,1.6,3.9,79,0.00,,---,0.00,VWS V13.01,2013-01-29 09:39:00,
2013-01-29 04:40:00,73.2,66.4,30.20,East,80,1.7,2.1,79,0.00,,---,0.00,VWS V13.01,2013-01-29 09:40:00,
2013-01-29 04:41:00,73.2,66.4,30.20,East,87,0.5,2.2,79,0.00,,---,0.00,VWS V13.01,2013-01-29 09:41:00,
2013-01-29 04:42:00,73.2,66.4,30.20,East,87,0.5,2.2,79,0.00,,---,0.00,VWS V13.01,2013-01-29 09:42:00,
2013-01-29 04:43:00,73.2,66.5,30.20,ENE,60,2.8,3.3,80,0.00,,---,0.00,VWS V13.01,2013-01-29 09:43:00,
2013-01-29 04:44:00,73.3,66.6,30.20,East,97,0.0,3.0,80,0.00,,---,0.00,VWS V13.01,2013-01-29 09:44:00,
2013-01-29 04:45:00,73.1,66.4,30.20,East,97,0.0,0.0,80,0.00,,---,0.00,VWS V13.01,2013-01-29 09:45:00,
2013-01-29 04:46:00,73.0,66.4,30.20,ENE,62,0.6,2.3,80,0.00,,---,0.00,VWS V13.01,2013-01-29 09:46:00,
2013-01-29 04:47:00,73.1,66.5,30.20,ENE,62,0.0,2.3,80,0.00,,---,0.00,VWS V13.01,2013-01-29 09:47:00,
2013-01-29 04:48:00,72.9,66.3,30.20,East,94,1.2,1.7,80,0.00,,---,0.00,VWS V13.01,2013-01-29 09:48:00,
2013-01-29 04:49:00,72.8,66.3,30.20,East,90,3.0,5.0,80,0.00,,---,0.00,VWS V13.01,2013-01-29 09:49:00,
2013-01-29 04:50:00,72.9,66.4,30.20,ESE,108,3.0,5.2,80,0.00,,---,0.00,VWS V13.01,2013-01-29 09:50:00,
2013-01-29 04:51:00,73.0,66.5,30.20,East,79,2.9,4.1,80,0.00,,---,0.00,VWS V13.01,2013-01-29 09:51:00,
2013-01-29 04:52:00,73.0,66.5,30.20,East,79,2.9,4.1,80,0.00,,---,0.00,VWS V13.01,2013-01-29 09:52:00,
2013-01-29 04:53:00,72.9,66.4,30.20,East,86,2.6,5.0,80,0.00,,---,0.00,VWS V13.01,2013-01-29 09:53:00,
2013-01-29 04:54:00,72.9,66.4,30.20,ESE,114,3.4,6.9,80,0.00,,---,0.00,VWS V13.01,2013-01-29 09:54:00,
2013-01-29 04:55:00,72.9,66.4,30.20,ENE,68,1.6,4.5,80,0.00,,---,0.00,VWS V13.01,2013-01-29 09:55:00,
2013-01-29 04:56:00,72.8,66.3,30.20,East,82,4.8,4.8,80,0.00,,---,0.00,VWS V13.01,2013-01-29 09:56:00,
2013-01-29 04:57:00,72.8,66.3,30.20,East,82,4.8,4.8,80,0.00,,---,0.00,VWS V13.01,2013-01-29 09:57:00,
2013-01-29 04:58:00,72.9,66.4,30.20,East,98,2.5,4.8,80,0.00,,---,0.00,VWS V13.01,2013-01-29 09:58:00,
2013-01-29 04:59:00,72.9,66.4,30.20,East,86,2.9,4.7,80,0.00,,---,0.00,VWS V13.01,2013-01-29 09:59:00,
2013-01-29 05:00:00,73.0,66.5,30.20,ESE,112,1.9,3.4,80,0.00,,---,0.00,VWS V13.01,2013-01-29 10:00:00,
2013-01-29 05:01:00,72.8,66.3,30.20,East,83,0.9,1.3,80,0.00,,---,0.00,VWS V13.01,2013-01-29 10:01:00,
2013-01-29 05:02:00,73.0,66.5,30.20,East,82,1.3,4.0,80,0.00,,---,0.00,VWS V13.01,2013-01-29 10:02:00,
2013-01-29 05:03:00,72.8,66.2,30.20,East,86,1.8,6.8,80,0.00,,---,0.00,VWS V13.01,2013-01-29 10:03:00,
2013-01-29 05:04:00,72.9,66.3,30.20,ESE,104,4.5,4.7,80,0.00,,---,0.00,VWS V13.01,2013-01-29 10:04:00,
2013-01-29 05:05:00,72.8,66.1,30.20,East,91,4.5,6.7,80,0.00,,---,0.00,VWS V13.01,2013-01-29 10:05:00,
2013-01-29 05:06:00,72.9,66.2,30.20,East,83,2.7,3.7,80,0.00,,---,0.00,VWS V13.01,2013-01-29 10:06:00,
2013-01-29 05:07:00,72.9,66.2,30.20,East,83,2.7,3.7,80,0.00,,---,0.00,VWS V13.01,2013-01-29 10:07:00,
2013-01-29 05:08:00,72.8,66.1,30.20,ENE,62,2.4,5.1,80,0.00,,---,0.00,VWS V13.01,2013-01-29 10:08:00,
2013-01-29 05:09:00,72.9,66.2,30.20,East,91,1.2,3.5,80,0.00,,---,0.00,VWS V13.01,2013-01-29 10:09:00,
2013-01-29 05:10:00,72.8,66.1,30.20,ENE,73,0.5,5.7,80,0.00,,---,0.00,VWS V13.01,2013-01-29 10:10:00,
2013-01-29 05:11:00,72.9,66.2,30.20,ESE,117,5.2,5.3,80,0.00,,---,0.00,VWS V13.01,2013-01-29 10:11:00,
2013-01-29 05:12:00,72.9,66.2,30.20,ESE,117,5.2,5.3,80,0.00,,---,0.00,VWS V13.01,2013-01-29 10:12:00,
2013-01-29 05:13:00,72.8,66.1,30.20,NE,35,3.6,7.1,80,0.00,,---,0.00,VWS V13.01,2013-01-29 10:13:00,
2013-01-29 05:14:00,72.9,66.3,30.20,ESE,110,6.8,9.4,80,0.00,,---,0.00,VWS V13.01,2013-01-29 10:14:00,
2013-01-29 05:15:00,73.1,66.4,30.20,ESE,115,4.3,6.8,80,0.00,,---,0.00,VWS V13.01,2013-01-29 10:15:00,
2013-01-29 05:16:00,73.1,66.4,30.20,ESE,110,0.8,4.3,80,0.00,,---,0.00,VWS V13.01,2013-01-29 10:16:00,
2013-01-29 05:17:00,73.0,66.3,30.20,East,97,5.4,5.4,80,0.00,,---,0.00,VWS V13.01,2013-01-29 10:17:00,
2013-01-29 05:18:00,73.0,66.3,30.20,ENE,58,2.5,7.0,80,0.00,,---,0.00,VWS V13.01,2013-01-29 10:18:00,
2013-01-29 05:19:00,72.9,66.3,30.20,ESE,114,5.1,8.0,80,0.00,,---,0.00,VWS V13.01,2013-01-29 10:19:00,
2013-01-29 05:20:00,73.0,66.4,30.20,ESE,108,4.8,7.9,80,0.00,,---,0.00,VWS V13.01,2013-01-29 10:20:00,
2013-01-29 05:21:00,72.9,66.3,30.20,SSE,158,1.4,5.3,80,0.00,,---,0.00,VWS V13.01,2013-01-29 10:21:00,
2013-01-29 05:22:00,72.9,66.4,30.20,ESE,118,4.0,4.3,80,0.00,,---,0.00,VWS V13.01,2013-01-29 10:22:00,
2013-01-29 05:23:00,72.9,66.4,30.20,ESE,114,2.4,4.3,80,0.00,,---,0.00,VWS V13.01,2013-01-29 10:23:00,
2013-01-29 05:24:00,72.9,66.4,30.20,ENE,63,3.0,5.0,80,0.00,,---,0.00,VWS V13.01,2013-01-29 10:24:00,
2013-01-29 05:25:00,73.0,66.5,30.20,SE,131,4.0,6.1,80,0.00,,---,0.00,VWS V13.01,2013-01-29 10:25:00,
2013-01-29 05:26:00,73.0,66.5,30.20,East,84,2.0,4.6,80,0.00,,---,0.00,VWS V13.01,2013-01-29 10:26:00,
2013-01-29 05:27:00,72.8,66.3,30.20,ENE,70,3.1,5.8,80,0.00,,---,0.00,VWS V13.01,2013-01-29 10:27:00,
2013-01-29 05:28:00,72.9,66.4,30.20,East,98,2.2,5.8,80,0.00,,---,0.00,VWS V13.01,2013-01-29 10:28:00,
2013-01-29 05:29:00,73.0,66.5,30.20,East,84,2.8,8.3,80,0.00,,---,0.00,VWS V13.01,2013-01-29 10:29:00,
2013-01-29 05:30:00,72.9,66.4,30.20,NNE,22,1.6,6.8,80,0.00,,---,0.00,VWS V13.01,2013-01-29 10:30:00,
2013-01-29 05:31:00,72.9,66.4,30.20,ESE,114,3.2,5.8,80,0.00,,---,0.00,VWS V13.01,2013-01-29 10:31:00,
2013-01-29 05:32:00,73.0,66.5,30.20,NNE,32,0.9,1.5,80,0.00,,---,0.00,VWS V13.01,2013-01-29 10:32:00,
2013-01-29 05:33:00,73.1,66.6,30.20,East,94,3.4,3.9,80,0.00,,---,0.00,VWS V13.01,2013-01-29 10:33:00,
2013-01-29 05:34:00,73.0,66.5,30.20,NNE,14,0.4,7.3,80,0.00,,---,0.00,VWS V13.01,2013-01-29 10:34:00,
2013-01-29 05:35:00,73.0,66.5,30.20,NNE,25,2.2,5.9,80,0.00,,---,0.00,VWS V13.01,2013-01-29 10:35:00,
2013-01-29 05:36:00,72.7,66.2,30.20,East,90,4.2,9.6,80,0.00,,---,0.00,VWS V13.01,2013-01-29 10:36:00,
2013-01-29 05:37:00,72.8,66.4,30.20,East,86,4.5,8.0,80,0.00,,---,0.00,VWS V13.01,2013-01-29 10:37:00,
2013-01-29 05:38:00,73.0,66.5,30.20,ENE,76,1.8,8.0,80,0.00,,---,0.00,VWS V13.01,2013-01-29 10:38:00,
2013-01-29 05:39:00,72.9,66.4,30.20,East,101,3.2,4.2,80,0.00,,---,0.00,VWS V13.01,2013-01-29 10:39:00,
2013-01-29 05:40:00,73.0,66.5,30.20,East,90,5.8,5.8,80,0.00,,---,0.00,VWS V13.01,2013-01-29 10:40:00,
2013-01-29 05:41:00,72.9,66.4,30.20,East,87,7.2,8.6,80,0.00,,---,0.00,VWS V13.01,2013-01-29 10:41:00,
2013-01-29 05:42:00,72.9,66.4,30.20,East,86,3.9,5.8,80,0.00,,---,0.00,VWS V13.01,2013-01-29 10:42:00,
2013-01-29 05:43:00,73.0,66.5,30.20,ENE,76,2.9,6.5,80,0.00,,---,0.00,VWS V13.01,2013-01-29 10:43:00,
2013-01-29 05:44:00,73.1,66.6,30.20,ENE,62,3.4,5.6,80,0.00,,---,0.00,VWS V13.01,2013-01-29 10:44:00,
2013-01-29 05:45:00,73.0,66.5,30.20,East,83,1.6,5.7,80,0.00,,---,0.00,VWS V13.01,2013-01-29 10:45:00,
2013-01-29 05:46:00,73.2,66.7,30.20,East,87,0.9,1.9,80,0.00,,---,0.00,VWS V13.01,2013-01-29 10:46:00,
2013-01-29 05:47:00,72.9,66.3,30.20,ENE,76,1.7,1.7,80,0.00,,---,0.00,VWS V13.01,2013-01-29 10:47:00,
2013-01-29 05:48:00,72.9,66.4,30.20,East,79,5.8,6.0,80,0.00,,---,0.00,VWS V13.01,2013-01-29 10:48:00,
2013-01-29 05:49:00,72.9,66.4,30.20,East,91,1.9,6.6,80,0.00,,---,0.00,VWS V13.01,2013-01-29 10:49:00,
2013-01-29 05:50:00,72.8,66.3,30.20,East,79,1.0,6.0,80,0.00,,---,0.00,VWS V13.01,2013-01-29 10:50:00,
2013-01-29 05:51:00,73.0,66.5,30.20,East,94,6.5,7.2,80,0.00,,---,0.00,VWS V13.01,2013-01-29 10:51:00,
2013-01-29 05:52:00,72.9,66.4,30.20,East,90,4.6,5.2,80,0.00,,---,0.00,VWS V13.01,2013-01-29 10:52:00,
2013-01-29 05:53:00,72.9,66.5,30.20,ENE,68,1.0,5.7,80,0.00,,---,0.00,VWS V13.01,2013-01-29 10:53:00,
2013-01-29 05:54:00,73.0,66.5,30.21,North,357,0.3,1.3,80,0.00,,---,0.00,VWS V13.01,2013-01-29 10:54:00,
2013-01-29 05:55:00,73.0,66.5,30.21,North,357,0.0,0.3,80,0.00,,---,0.00,VWS V13.01,2013-01-29 10:55:00,
2013-01-29 05:56:00,72.9,66.4,30.21,NNE,30,0.0,2.2,80,0.00,,---,0.00,VWS V13.01,2013-01-29 10:56:00,
2013-01-29 05:57:00,73.0,66.5,30.21,NE,48,0.0,0.0,80,0.00,,---,0.00,VWS V13.01,2013-01-29 10:57:00,
2013-01-29 05:58:00,72.9,66.4,30.21,NE,48,0.0,0.0,80,0.00,,---,0.00,VWS V13.01,2013-01-29 10:58:00,
2013-01-29 05:59:00,73.0,66.5,30.21,NE,52,1.1,4.2,80,0.00,,---,0.00,VWS V13.01,2013-01-29 10:59:00,
2013-01-29 06:00:00,72.9,66.4,30.21,NE,38,0.0,1.1,80,0.00,,---,0.00,VWS V13.01,2013-01-29 11:00:00,
2013-01-29 06:01:00,73.0,66.6,30.21,NE,38,0.0,0.0,80,0.00,,---,0.00,VWS V13.01,2013-01-29 11:01:00,
2013-01-29 06:02:00,72.8,66.5,30.21,NE,38,0.0,0.0,80,0.00,,---,0.00,VWS V13.01,2013-01-29 11:02:00,
2013-01-29 06:03:00,73.0,66.7,30.21,NE,38,0.0,0.0,80,0.00,,---,0.00,VWS V13.01,2013-01-29 11:03:00,
2013-01-29 06:04:00,72.8,66.5,30.21,NE,38,0.0,0.0,81,0.00,,---,0.00,VWS V13.01,2013-01-29 11:04:00,
2013-01-29 06:05:00,72.7,66.4,30.21,NE,38,0.0,0.0,81,0.00,,---,0.00,VWS V13.01,2013-01-29 11:05:00,
2013-01-29 06:06:00,72.9,66.7,30.21,NE,49,1.2,3.5,81,0.00,,---,0.00,VWS V13.01,2013-01-29 11:06:00,
2013-01-29 06:07:00,72.7,66.5,30.21,East,91,0.0,1.8,81,0.00,,---,0.00,VWS V13.01,2013-01-29 11:07:00,
2013-01-29 06:08:00,72.9,66.7,30.21,ESE,117,1.2,1.8,81,0.00,,---,0.00,VWS V13.01,2013-01-29 11:08:00,
2013-01-29 06:09:00,72.7,66.6,30.21,East,83,2.2,2.6,81,0.00,,---,0.00,VWS V13.01,2013-01-29 11:09:00,
2013-01-29 06:10:00,72.6,66.6,30.21,ESE,107,3.4,5.1,81,0.00,,---,0.00,VWS V13.01,2013-01-29 11:10:00,
2013-01-29 06:11:00,72.7,66.8,30.21,East,90,1.7,8.5,82,0.00,,---,0.00,VWS V13.01,2013-01-29 11:11:00,
2013-01-29 06:12:00,72.6,66.7,30.21,East,89,3.9,4.1,82,0.00,,---,0.00,VWS V13.01,2013-01-29 11:12:00,
2013-01-29 06:13:00,72.7,66.8,30.21,ESE,107,0.6,4.1,82,0.00,,---,0.00,VWS V13.01,2013-01-29 11:13:00,
2013-01-29 06:14:00,72.5,66.5,30.21,NE,34,0.0,1.9,82,0.00,,---,0.00,VWS V13.01,2013-01-29 11:14:00,
2013-01-29 06:15:00,72.6,66.7,30.22,NE,34,0.0,0.0,82,0.00,,---,0.00,VWS V13.01,2013-01-29 11:15:00,
2013-01-29 06:16:00,72.7,66.8,30.21,ENE,76,2.8,5.3,82,0.00,,---,0.00,VWS V13.01,2013-01-29 11:16:00,
2013-01-29 06:17:00,72.5,66.6,30.22,NE,55,2.4,3.6,82,0.00,,---,0.00,VWS V13.01,2013-01-29 11:17:00,
2013-01-29 06:18:00,72.5,66.6,30.22,ESE,107,3.5,3.6,82,0.00,,---,0.00,VWS V13.01,2013-01-29 11:18:00,
2013-01-29 06:19:00,72.5,66.7,30.22,ENE,70,0.0,4.2,82,0.00,,---,0.00,VWS V13.01,2013-01-29 11:19:00,
2013-01-29 06:20:00,72.5,66.7,30.22,East,89,1.1,4.4,82,0.00,,---,0.00,VWS V13.01,2013-01-29 11:20:00,
2013-01-29 06:21:00,72.6,66.8,30.22,ESE,115,3.9,3.9,82,0.00,,---,0.00,VWS V13.01,2013-01-29 11:21:00,
2013-01-29 06:22:00,72.6,66.9,30.21,East,90,4.5,4.5,82,0.00,,---,0.00,VWS V13.01,2013-01-29 11:22:00,
2013-01-29 06:23:00,72.6,66.9,30.21,ENE,68,3.3,7.6,82,0.00,,---,0.00,VWS V13.01,2013-01-29 11:23:00,
2013-01-29 06:24:00,72.5,66.8,30.22,NE,51,0.0,3.3,82,0.00,,---,0.00,VWS V13.01,2013-01-29 11:24:00,
2013-01-29 06:25:00,72.7,67.0,30.21,East,101,4.9,4.9,82,0.00,,---,0.00,VWS V13.01,2013-01-29 11:25:00,
2013-01-29 06:26:00,72.6,66.9,30.21,East,84,3.0,5.4,82,0.00,,---,0.00,VWS V13.01,2013-01-29 11:26:00,
2013-01-29 06:27:00,72.5,66.8,30.21,East,97,3.8,4.8,82,0.00,,---,0.00,VWS V13.01,2013-01-29 11:27:00,
2013-01-29 06:28:00,72.7,67.0,30.21,East,96,1.7,4.8,82,0.00,,---,0.00,VWS V13.01,2013-01-29 11:28:00,
2013-01-29 06:29:00,72.5,66.8,30.21,ESE,103,3.9,6.5,82,0.00,,---,0.00,VWS V13.01,2013-01-29 11:29:00,
2013-01-29 06:30:00,72.6,66.8,30.22,East,96,1.6,4.7,82,0.00,,---,0.00,VWS V13.01,2013-01-29 11:30:00,
2013-01-29 06:31:00,72.5,66.7,30.21,East,94,6.1,7.5,82,0.00,,---,0.00,VWS V13.01,2013-01-29 11:31:00,
2013-01-29 06:32:00,72.7,67.0,30.22,SE,134,4.0,7.1,82,0.00,,---,0.00,VWS V13.01,2013-01-29 11:32:00,
2013-01-29 06:33:00,72.6,66.9,30.22,ESE,114,3.5,7.1,82,0.00,,---,0.00,VWS V13.01,2013-01-29 11:33:00,
2013-01-29 06:34:00,72.8,67.2,30.22,East,97,3.8,7.6,82,0.00,,---,0.00,VWS V13.01,2013-01-29 11:34:00,
2013-01-29 06:35:00,72.8,67.2,30.22,East,87,4.0,5.2,82,0.00,,---,0.00,VWS V13.01,2013-01-29 11:35:00,
2013-01-29 06:36:00,72.8,67.2,30.22,East,89,2.0,4.4,82,0.00,,---,0.00,VWS V13.01,2013-01-29 11:36:00,
2013-01-29 06:37:00,72.9,67.2,30.22,SSE,149,3.6,3.8,82,0.00,,---,0.00,VWS V13.01,2013-01-29 11:37:00,
2013-01-29 06:38:00,72.7,67.0,30.22,East,86,3.6,4.8,82,0.00,,---,0.00,VWS V13.01,2013-01-29 11:38:00,
2013-01-29 06:39:00,73.0,67.3,30.22,ENE,65,0.8,3.6,82,0.00,,---,0.00,VWS V13.01,2013-01-29 11:39:00,
2013-01-29 06:40:00,72.7,67.0,30.22,ENE,65,0.0,0.8,82,0.00,,---,0.00,VWS V13.01,2013-01-29 11:40:00,
2013-01-29 06:41:00,72.9,67.3,30.22,NE,45,1.1,4.8,83,0.00,,---,0.00,VWS V13.01,2013-01-29 11:41:00,
2013-01-29 06:42:00,72.9,67.3,30.22,ENE,70,3.5,4.0,83,0.00,,---,0.00,VWS V13.01,2013-01-29 11:42:00,
2013-01-29 06:43:00,72.8,67.2,30.22,East,93,2.9,4.0,83,0.00,,---,0.00,VWS V13.01,2013-01-29 11:43:00,
2013-01-29 06:44:00,72.8,67.2,30.22,ENE,76,0.0,2.9,83,0.00,,---,0.00,VWS V13.01,2013-01-29 11:44:00,
2013-01-29 06:45:00,72.7,67.1,30.22,ENE,76,0.0,0.0,83,0.00,,---,0.00,VWS V13.01,2013-01-29 11:45:00,
2013-01-29 06:46:00,72.9,67.4,30.22,NE,53,2.4,4.3,83,0.00,,---,0.00,VWS V13.01,2013-01-29 11:46:00,
2013-01-29 06:47:00,72.7,67.2,30.22,East,79,5.7,8.0,83,0.00,,---,0.00,VWS V13.01,2013-01-29 11:47:00,
2013-01-29 06:48:00,72.8,67.4,30.22,ESE,118,5.3,8.0,83,0.00,,---,0.00,VWS V13.01,2013-01-29 11:48:00,
2013-01-29 06:49:00,72.8,67.4,30.22,NE,52,1.0,6.2,83,0.00,,---,0.00,VWS V13.01,2013-01-29 11:49:00,
2013-01-29 06:50:00,72.7,67.2,30.22,NE,52,0.0,1.0,83,0.00,,---,0.00,VWS V13.01,2013-01-29 11:50:00,
2013-01-29 06:51:00,72.9,67.4,30.22,East,97,3.7,6.0,83,0.00,,---,0.00,VWS V13.01,2013-01-29 11:51:00,
2013-01-29 06:52:00,72.8,67.4,30.22,ESE,104,2.6,3.9,83,0.00,,---,0.00,VWS V13.01,2013-01-29 11:52:00,
2013-01-29 06:53:00,72.6,67.2,30.22,East,93,2.6,3.9,83,0.00,,---,0.00,VWS V13.01,2013-01-29 11:53:00,
2013-01-29 06:54:00,72.6,67.2,30.22,NE,56,0.0,3.1,83,0.00,,---,0.00,VWS V13.01,2013-01-29 11:54:00,
2013-01-29 06:55:00,72.6,67.1,30.22,NE,56,0.0,0.0,83,0.00,,---,0.00,VWS V13.01,2013-01-29 11:55:00,
2013-01-29 06:56:00,72.8,67.3,30.22,ENE,73,2.0,4.9,83,0.00,,---,0.00,VWS V13.01,2013-01-29 11:56:00,
2013-01-29 06:57:00,72.7,67.3,30.22,East,96,6.5,7.1,83,0.00,,---,0.00,VWS V13.01,2013-01-29 11:57:00,
2013-01-29 06:58:00,72.6,67.2,30.22,ESE,121,4.1,7.1,83,0.00,,---,0.00,VWS V13.01,2013-01-29 11:58:00,
2013-01-29 06:59:00,72.8,67.4,30.22,ENE,76,3.2,4.6,83,0.00,,---,0.00,VWS V13.01,2013-01-29 11:59:00,
2013-01-29 07:00:00,72.7,67.3,30.22,ESE,121,3.2,6.3,83,0.00,,---,0.00,VWS V13.01,2013-01-29 12:00:00,
2013-01-29 07:01:00,72.5,67.1,30.22,ENE,58,0.0,3.2,83,0.00,,---,0.00,VWS V13.01,2013-01-29 12:01:00,
2013-01-29 07:02:00,72.8,67.4,30.22,East,83,0.0,2.6,83,0.00,,---,0.00,VWS V13.01,2013-01-29 12:02:00,
2013-01-29 07:03:00,72.8,67.4,30.22,East,83,0.0,2.6,83,0.00,,---,0.00,VWS V13.01,2013-01-29 12:03:00,
2013-01-29 07:04:00,72.8,67.4,30.22,ENE,77,3.9,4.0,83,0.00,,---,0.00,VWS V13.01,2013-01-29 12:04:00,
2013-01-29 07:05:00,72.6,67.2,30.22,ESE,110,3.1,3.9,83,0.00,,---,0.00,VWS V13.01,2013-01-29 12:05:00,
2013-01-29 07:06:00,72.7,67.3,30.22,ESE,103,3.7,4.6,83,0.00,,---,0.00,VWS V13.01,2013-01-29 12:06:00,
2013-01-29 07:07:00,72.6,67.3,30.23,SE,135,2.5,4.3,83,0.00,,---,0.00,VWS V13.01,2013-01-29 12:07:00,
2013-01-29 07:08:00,72.8,67.5,30.23,East,97,2.0,4.3,83,0.00,,---,0.00,VWS V13.01,2013-01-29 12:08:00,
2013-01-29 07:09:00,72.7,67.3,30.22,ENE,62,0.0,3.3,83,0.00,,---,0.00,VWS V13.01,2013-01-29 12:09:00,
2013-01-29 07:10:00,72.7,67.3,30.22,East,96,1.5,1.5,83,0.00,,---,0.00,VWS V13.01,2013-01-29 12:10:00,
2013-01-29 07:11:00,72.8,67.4,30.22,ENE,68,0.0,1.5,83,0.00,,---,0.00,VWS V13.01,2013-01-29 12:11:00,
2013-01-29 07:12:00,72.8,67.5,30.23,East,79,5.5,5.5,83,0.00,,---,0.00,VWS V13.01,2013-01-29 12:12:00,
2013-01-29 07:13:00,72.8,67.5,30.23,East,80,5.2,5.5,83,0.00,,---,0.00,VWS V13.01,2013-01-29 12:13:00,
2013-01-29 07:14:00,72.7,67.4,30.22,East,89,4.2,6.1,84,0.00,,---,0.00,VWS V13.01,2013-01-29 12:14:00,
2013-01-29 07:15:00,72.8,67.5,30.23,East,84,1.1,4.3,84,0.00,,---,0.00,VWS V13.01,2013-01-29 12:15:00,
2013-01-29 07:16:00,72.8,67.5,30.22,East,84,0.0,1.1,83,0.00,,---,0.00,VWS V13.01,2013-01-29 12:16:00,
2013-01-29 07:17:00,72.7,67.4,30.23,ENE,72,1.7,3.6,84,0.00,,---,0.00,VWS V13.01,2013-01-29 12:17:00,
2013-01-29 07:18:00,72.7,67.4,30.23,ENE,72,1.7,3.6,84,0.00,,---,0.00,VWS V13.01,2013-01-29 12:18:00,
2013-01-29 07:19:00,72.7,67.4,30.23,ESE,120,0.0,1.9,84,0.00,,---,0.00,VWS V13.01,2013-01-29 12:19:00,
2013-01-29 07:20:00,72.8,67.5,30.23,ESE,120,0.0,0.2,84,0.00,,---,0.00,VWS V13.01,2013-01-29 12:20:00,
2013-01-29 07:21:00,72.8,67.6,30.23,ENE,73,1.9,2.5,84,0.00,,---,0.00,VWS V13.01,2013-01-29 12:21:00,
2013-01-29 07:22:00,72.7,67.4,30.23,NE,53,1.6,2.5,84,0.00,,---,0.00,VWS V13.01,2013-01-29 12:22:00,
2013-01-29 07:23:00,72.9,67.7,30.23,NNE,21,1.1,2.1,84,0.00,,---,0.00,VWS V13.01,2013-01-29 12:23:00,
2013-01-29 07:24:00,72.7,67.5,30.23,East,80,0.0,2.1,84,0.00,,---,0.00,VWS V13.01,2013-01-29 12:24:00,
2013-01-29 07:25:00,72.7,67.5,30.23,East,80,3.1,7.3,84,0.00,,---,0.00,VWS V13.01,2013-01-29 12:25:00,
2013-01-29 07:26:00,72.7,67.5,30.23,ESE,121,0.9,3.1,84,0.00,,---,0.00,VWS V13.01,2013-01-29 12:26:00,
2013-01-29 07:27:00,72.7,67.4,30.23,ENE,70,0.0,2.1,84,0.00,,---,0.00,VWS V13.01,2013-01-29 12:27:00,
2013-01-29 07:28:00,72.7,67.4,30.23,NNE,28,0.0,0.0,84,0.00,,---,0.00,VWS V13.01,2013-01-29 12:28:00,
2013-01-29 07:29:00,72.9,67.7,30.23,NNE,28,0.0,0.0,84,0.00,,---,0.00,VWS V13.01,2013-01-29 12:29:00,
2013-01-29 07:30:00,72.8,67.6,30.23,NNE,28,0.0,0.0,84,0.00,,---,0.00,VWS V13.01,2013-01-29 12:30:00,
2013-01-29 07:31:00,72.8,67.6,30.23,NE,51,1.2,2.5,84,0.00,,---,0.00,VWS V13.01,2013-01-29 12:31:00,
2013-01-29 07:32:00,72.6,67.4,30.23,ENE,73,1.0,2.4,84,0.00,,---,0.00,VWS V13.01,2013-01-29 12:32:00,
2013-01-29 07:33:00,72.8,67.6,30.23,NE,55,0.7,0.7,84,0.00,,---,0.00,VWS V13.01,2013-01-29 12:33:00,
2013-01-29 07:34:00,72.7,67.5,30.23,NE,55,0.0,0.7,84,0.00,,---,0.00,VWS V13.01,2013-01-29 12:34:00,
2013-01-29 07:35:00,72.8,67.6,30.23,NE,55,0.0,0.0,84,0.00,,---,0.00,VWS V13.01,2013-01-29 12:35:00,
2013-01-29 07:36:00,72.8,67.6,30.23,ESE,111,3.8,4.9,84,0.00,,---,0.00,VWS V13.01,2013-01-29 12:36:00,
2013-01-29 07:37:00,72.9,67.7,30.23,NE,34,1.7,3.8,84,0.00,,---,0.00,VWS V13.01,2013-01-29 12:37:00,
2013-01-29 07:38:00,72.8,67.6,30.23,ESE,110,5.0,5.2,84,0.00,,---,0.00,VWS V13.01,2013-01-29 12:38:00,
2013-01-29 07:39:00,72.8,67.7,30.23,East,86,3.2,7.1,84,0.00,,---,0.00,VWS V13.01,2013-01-29 12:39:00,
2013-01-29 07:40:00,72.8,67.7,30.23,ENE,68,1.9,3.9,84,0.00,,---,0.00,VWS V13.01,2013-01-29 12:40:00,
2013-01-29 07:41:00,73.0,67.8,30.23,East,79,3.2,5.2,84,0.00,,---,0.00,VWS V13.01,2013-01-29 12:41:00,
2013-01-29 07:42:00,72.8,67.6,30.23,ESE,107,1.7,4.8,84,0.00,,---,0.00,VWS V13.01,2013-01-29 12:42:00,
2013-01-29 07:43:00,72.9,67.8,30.23,East,79,3.2,4.6,84,0.00,,---,0.00,VWS V13.01,2013-01-29 12:43:00,
2013-01-29 07:44:00,72.9,67.7,30.23,ESE,118,1.1,4.6,84,0.00,,---,0.00,VWS V13.01,2013-01-29 12:44:00,
2013-01-29 07:45:00,72.9,67.7,30.23,East,101,1.6,1.9,84,0.00,,---,0.00,VWS V13.01,2013-01-29 12:45:00,
2013-01-29 07:46:00,73.0,67.8,30.23,ENE,75,0.0,4.0,84,0.00,,---,0.00,VWS V13.01,2013-01-29 12:46:00,
2013-01-29 07:47:00,73.0,67.8,30.23,ENE,75,0.8,0.8,84,0.00,,---,0.00,VWS V13.01,2013-01-29 12:47:00,
2013-01-29 07:48:00,73.0,67.8,30.23,NE,55,0.0,0.0,84,0.00,,---,0.00,VWS V13.01,2013-01-29 12:48:00,
2013-01-29 07:49:00,73.1,67.8,30.23,NE,55,0.0,0.0,84,0.00,,---,0.00,VWS V13.01,2013-01-29 12:49:00,
2013-01-29 07:50:00,73.1,67.8,30.23,ENE,69,0.0,1.2,84,0.00,,---,0.00,VWS V13.01,2013-01-29 12:50:00,
2013-01-29 07:51:00,73.1,67.8,30.23,ESE,112,5.8,5.8,84,0.00,,---,0.00,VWS V13.01,2013-01-29 12:51:00,
2013-01-29 07:52:00,73.2,67.9,30.23,East,94,0.6,5.9,84,0.00,,---,0.00,VWS V13.01,2013-01-29 12:52:00,
2013-01-29 07:53:00,73.3,68.0,30.23,ENE,66,0.9,2.4,84,0.00,,---,0.00,VWS V13.01,2013-01-29 12:53:00,
2013-01-29 07:54:00,73.0,67.7,30.23,ENE,66,0.0,2.4,83,0.00,,---,0.00,VWS V13.01,2013-01-29 12:54:00,
2013-01-29 07:55:00,73.2,67.8,30.23,NNE,21,0.7,5.0,83,0.00,,---,0.00,VWS V13.01,2013-01-29 12:55:00,
2013-01-29 07:56:00,73.1,67.7,30.23,East,93,1.2,1.2,83,0.00,,---,0.00,VWS V13.01,2013-01-29 12:56:00,
2013-01-29 07:57:00,73.4,68.0,30.23,ENE,65,0.0,1.3,83,0.00,,---,0.00,VWS V13.01,2013-01-29 12:57:00,
2013-01-29 07:58:00,73.4,68.0,30.23,East,90,5.7,6.8,83,0.00,,---,0.00,VWS V13.01,2013-01-29 12:58:00,
2013-01-29 07:59:00,73.3,67.9,30.23,NE,51,3.4,6.8,83,0.00,,---,0.00,VWS V13.01,2013-01-29 12:59:00,
2013-01-29 08:00:00,73.3,67.9,30.23,East,80,1.1,4.1,83,0.00,,---,0.00,VWS V13.01,2013-01-29 13:00:00,
2013-01-29 08:01:00,73.3,67.9,30.23,ESE,108,2.2,4.5,83,0.00,,---,0.00,VWS V13.01,2013-01-29 13:01:00,
2013-01-29 08:02:00,73.6,68.2,30.23,East,80,2.9,5.0,83,0.00,,---,0.00,VWS V13.01,2013-01-29 13:02:00,
2013-01-29 08:03:00,73.5,68.1,30.23,ENE,60,2.4,2.9,83,0.00,,---,0.00,VWS V13.01,2013-01-29 13:03:00,
2013-01-29 08:04:00,73.5,68.1,30.23,ENE,62,2.4,4.4,83,0.00,,---,0.00,VWS V13.01,2013-01-29 13:04:00,
2013-01-29 08:05:00,73.5,68.1,30.23,East,79,3.8,7.8,83,0.00,,---,0.00,VWS V13.01,2013-01-29 13:05:00,
2013-01-29 08:06:00,73.6,68.1,30.23,ESE,111,4.5,6.3,83,0.00,,---,0.00,VWS V13.01,2013-01-29 13:06:00,
2013-01-29 08:07:00,73.7,68.1,30.23,ESE,112,2.5,5.8,83,0.00,,---,0.00,VWS V13.01,2013-01-29 13:07:00,
2013-01-29 08:08:00,73.9,68.3,30.23,NE,48,1.6,3.1,83,0.00,,---,0.00,VWS V13.01,2013-01-29 13:08:00,
2013-01-29 08:09:00,73.8,68.2,30.23,ENE,72,1.6,3.7,83,0.00,,---,0.00,VWS V13.01,2013-01-29 13:09:00,
2013-01-29 08:10:00,73.7,68.0,30.23,South,179,2.4,5.9,82,0.00,,---,0.00,VWS V13.01,2013-01-29 13:10:00,
2013-01-29 08:11:00,73.9,68.2,30.23,ENE,63,3.0,4.3,82,0.00,,---,0.00,VWS V13.01,2013-01-29 13:11:00,
2013-01-29 08:12:00,74.0,68.3,30.23,ESE,108,0.0,3.0,82,0.00,,---,0.00,VWS V13.01,2013-01-29 13:12:00,
2013-01-29 08:13:00,73.9,68.1,30.23,ENE,68,2.1,4.5,82,0.00,,---,0.00,VWS V13.01,2013-01-29 13:13:00,
2013-01-29 08:14:00,73.9,68.1,30.23,East,79,7.6,7.6,82,0.00,,---,0.00,VWS V13.01,2013-01-29 13:14:00,
2013-01-29 08:15:00,74.0,68.1,30.23,East,83,4.6,9.8,82,0.00,,---,0.00,VWS V13.01,2013-01-29 13:15:00,
2013-01-29 08:16:00,74.0,68.1,30.23,East,89,4.5,7.4,82,0.00,,---,0.00,VWS V13.01,2013-01-29 13:16:00,
2013-01-29 08:17:00,74.1,68.2,30.23,ENE,66,3.3,4.5,82,0.00,,---,0.00,VWS V13.01,2013-01-29 13:17:00,
2013-01-29 08:18:00,74.2,68.3,30.23,ESE,118,5.0,7.6,82,0.00,,---,0.00,VWS V13.01,2013-01-29 13:18:00,
2013-01-29 08:19:00,74.3,68.4,30.24,East,100,4.2,7.6,82,0.00,,---,0.00,VWS V13.01,2013-01-29 13:19:00,
2013-01-29 08:20:00,74.3,68.4,30.23,ESE,121,2.5,5.2,82,0.00,,---,0.00,VWS V13.01,2013-01-29 13:20:00,
2013-01-29 08:21:00,74.3,68.4,30.24,East,84,2.1,2.7,82,0.00,,---,0.00,VWS V13.01,2013-01-29 13:21:00,
2013-01-29 08:22:00,74.2,68.3,30.24,East,100,3.4,3.9,82,0.00,,---,0.00,VWS V13.01,2013-01-29 13:22:00,
2013-01-29 08:23:00,74.4,68.3,30.24,ESE,112,4.3,8.3,81,0.00,,---,0.00,VWS V13.01,2013-01-29 13:23:00,
2013-01-29 08:24:00,74.4,68.3,30.23,ENE,59,1.9,8.3,81,0.00,,---,0.00,VWS V13.01,2013-01-29 13:24:00,
2013-01-29 08:25:00,74.5,68.4,30.23,East,79,3.6,9.5,81,0.00,,---,0.00,VWS V13.01,2013-01-29 13:25:00,
2013-01-29 08:26:00,74.5,68.3,30.23,East,80,4.3,9.9,81,0.00,,---,0.00,VWS V13.01,2013-01-29 13:26:00,
2013-01-29 08:27:00,74.6,68.4,30.24,ENE,60,3.0,5.2,81,0.00,,---,0.00,VWS V13.01,2013-01-29 13:27:00,
2013-01-29 08:28:00,74.8,68.6,30.24,East,98,3.8,3.8,81,0.00,,---,0.00,VWS V13.01,2013-01-29 13:28:00,
2013-01-29 08:29:00,74.6,68.3,30.24,East,91,4.6,9.1,81,0.00,,---,0.00,VWS V13.01,2013-01-29 13:29:00,
2013-01-29 08:30:00,74.7,68.4,30.24,ENE,62,5.2,7.5,81,0.00,,---,0.00,VWS V13.01,2013-01-29 13:30:00,
2013-01-29 08:31:00,74.8,68.5,30.24,East,82,5.0,8.6,81,0.00,,---,0.00,VWS V13.01,2013-01-29 13:31:00,
2013-01-29 08:32:00,74.8,68.5,30.24,SSE,160,7.0,9.6,81,0.00,,---,0.00,VWS V13.01,2013-01-29 13:32:00,
2013-01-29 08:33:00,74.7,68.3,30.24,ESE,105,10.4,10.4,81,0.00,,---,0.00,VWS V13.01,2013-01-29 13:33:00,
2013-01-29 08:34:00,74.8,68.4,30.24,East,97,6.8,10.4,81,0.00,,---,0.00,VWS V13.01,2013-01-29 13:34:00,
2013-01-29 08:35:00,74.7,68.3,30.23,East,79,7.6,7.6,81,0.00,,---,0.00,VWS V13.01,2013-01-29 13:35:00,
2013-01-29 08:36:00,74.9,68.5,30.23,ENE,66,3.2,7.6,81,0.00,,---,0.00,VWS V13.01,2013-01-29 13:36:00,
2013-01-29 08:37:00,75.2,68.8,30.24,East,93,4.5,6.5,80,0.00,,---,0.00,VWS V13.01,2013-01-29 13:37:00,
2013-01-29 08:38:00,75.0,68.4,30.23,East,98,4.3,5.8,80,0.00,,---,0.00,VWS V13.01,2013-01-29 13:38:00,
2013-01-29 08:39:00,74.9,68.4,30.23,ESE,107,5.8,8.9,80,0.00,,---,0.00,VWS V13.01,2013-01-29 13:39:00,
2013-01-29 08:40:00,75.0,68.5,30.24,SE,134,4.5,7.8,80,0.00,,---,0.00,VWS V13.01,2013-01-29 13:40:00,
2013-01-29 08:41:00,75.0,68.5,30.24,ESE,118,3.4,6.9,80,0.00,,---,0.00,VWS V13.01,2013-01-29 13:41:00,
2013-01-29 08:42:00,75.3,68.8,30.24,ENE,59,2.4,3.4,80,0.00,,---,0.00,VWS V13.01,2013-01-29 13:42:00,
2013-01-29 08:43:00,75.4,68.9,30.24,NNE,27,1.7,3.7,80,0.00,,---,0.00,VWS V13.01,2013-01-29 13:43:00,
2013-01-29 08:44:00,75.2,68.7,30.24,East,89,3.6,5.3,80,0.00,,---,0.00,VWS V13.01,2013-01-29 13:44:00,
2013-01-29 08:45:00,75.2,68.6,30.24,East,82,5.4,8.5,80,0.00,,---,0.00,VWS V13.01,2013-01-29 13:45:00,
2013-01-29 08:46:00,75.3,68.7,30.24,ESE,108,2.7,9.7,80,0.00,,---,0.00,VWS V13.01,2013-01-29 13:46:00,
2013-01-29 08:47:00,75.3,68.8,30.24,East,90,2.6,4.8,80,0.00,,---,0.00,VWS V13.01,2013-01-29 13:47:00,
2013-01-29 08:48:00,75.5,69.0,30.24,SE,131,2.7,4.3,80,0.00,,---,0.00,VWS V13.01,2013-01-29 13:48:00,
2013-01-29 08:49:00,75.5,69.0,30.24,SE,136,9.3,10.4,80,0.00,,---,0.00,VWS V13.01,2013-01-29 13:49:00,
2013-01-29 08:50:00,75.6,69.0,30.24,ENE,60,5.5,9.3,80,0.00,,---,0.00,VWS V13.01,2013-01-29 13:50:00,
2013-01-29 08:51:00,75.3,68.6,30.24,ESE,114,6.7,7.7,80,0.00,,---,0.00,VWS V13.01,2013-01-29 13:51:00,
2013-01-29 08:52:00,75.3,68.6,30.24,East,80,4.9,7.5,80,0.00,,---,0.00,VWS V13.01,2013-01-29 13:52:00,
2013-01-29 08:53:00,75.7,69.1,30.24,ESE,103,1.4,5.8,80,0.00,,---,0.00,VWS V13.01,2013-01-29 13:53:00,
2013-01-29 08:54:00,75.6,69.0,30.24,East,79,4.0,6.5,80,0.00,,---,0.00,VWS V13.01,2013-01-29 13:54:00,
2013-01-29 08:55:00,75.6,69.0,30.24,East,84,3.7,5.9,80,0.00,,---,0.00,VWS V13.01,2013-01-29 13:55:00,
2013-01-29 08:56:00,75.4,68.7,30.24,East,100,6.5,9.0,80,0.00,,---,0.00,VWS V13.01,2013-01-29 13:56:00,
2013-01-29 08:57:00,75.5,68.8,30.24,ESE,112,10.4,10.4,80,0.00,,---,0.00,VWS V13.01,2013-01-29 13:57:00,
2013-01-29 08:58:00,75.2,68.5,30.24,ENE,66,5.7,10.7,80,0.00,,---,0.00,VWS V13.01,2013-01-29 13:58:00,
2013-01-29 08:59:00,75.4,68.7,30.24,East,79,3.0,10.7,80,0.00,,---,0.00,VWS V13.01,2013-01-29 13:59:00,
2013-01-29 09:00:00,75.5,68.9,30.24,East,97,1.8,5.5,80,0.00,,---,0.00,VWS V13.01,2013-01-29 14:00:00,
2013-01-29 09:01:00,75.4,68.8,30.24,East,100,7.6,7.6,80,0.00,,---,0.00,VWS V13.01,2013-01-29 14:01:00,
2013-01-29 09:02:00,75.7,69.1,30.24,East,97,5.2,7.6,80,0.00,,---,0.00,VWS V13.01,2013-01-29 14:02:00,
2013-01-29 09:03:00,75.5,68.9,30.24,East,98,3.9,6.7,80,0.00,,---,0.00,VWS V13.01,2013-01-29 14:03:00,
2013-01-29 09:04:00,75.5,68.9,30.24,NNE,13,1.5,7.6,80,0.00,,---,0.00,VWS V13.01,2013-01-29 14:04:00,
2013-01-29 09:05:00,75.7,69.0,30.24,East,98,4.6,9.1,80,0.00,,---,0.00,VWS V13.01,2013-01-29 14:05:00,
2013-01-29 09:06:00,75.4,68.7,30.24,ENE,66,3.2,5.4,80,0.00,,---,0.00,VWS V13.01,2013-01-29 14:06:00,
2013-01-29 09:07:00,75.6,68.9,30.24,East,83,5.2,5.2,80,0.00,,---,0.00,VWS V13.01,2013-01-29 14:07:00,
2013-01-29 09:08:00,75.4,68.7,30.24,ESE,104,3.2,8.0,80,0.00,,---,0.00,VWS V13.01,2013-01-29 14:08:00,
2013-01-29 09:09:00,75.5,68.8,30.24,ESE,104,6.7,8.9,80,0.00,,---,0.00,VWS V13.01,2013-01-29 14:09:00,
2013-01-29 09:10:00,75.5,68.8,30.24,SE,127,5.2,9.2,80,0.00,,---,0.00,VWS V13.01,2013-01-29 14:10:00,
2013-01-29 09:11:00,75.6,68.9,30.24,East,79,3.1,5.3,80,0.00,,---,0.00,VWS V13.01,2013-01-29 14:11:00,
2013-01-29 09:12:00,75.8,69.2,30.24,ESE,114,6.7,6.7,80,0.00,,---,0.00,VWS V13.01,2013-01-29 14:12:00,
2013-01-29 09:13:00,75.8,69.1,30.24,East,79,2.7,4.9,80,0.00,,---,0.00,VWS V13.01,2013-01-29 14:13:00,
2013-01-29 09:14:00,75.9,69.2,30.24,East,84,2.3,4.9,80,0.00,,---,0.00,VWS V13.01,2013-01-29 14:14:00,
2013-01-29 09:15:00,75.8,68.8,30.24,East,79,4.5,9.7,79,0.00,,---,0.00,VWS V13.01,2013-01-29 14:15:00,
2013-01-29 09:16:00,76.0,69.1,30.24,ESE,110,5.5,7.3,79,0.00,,---,0.00,VWS V13.01,2013-01-29 14:16:00,
2013-01-29 09:17:00,75.9,68.8,30.24,East,91,7.5,8.4,79,0.00,,---,0.00,VWS V13.01,2013-01-29 14:17:00,
2013-01-29 09:18:00,76.1,68.6,30.24,East,86,8.2,8.6,78,0.00,,---,0.00,VWS V13.01,2013-01-29 14:18:00,
2013-01-29 09:19:00,76.0,68.4,30.24,East,89,10.6,10.6,77,0.00,,---,0.00,VWS V13.01,2013-01-29 14:19:00,
2013-01-29 09:20:00,76.2,68.6,30.24,ESE,104,6.0,11.5,77,0.00,,---,0.00,VWS V13.01,2013-01-29 14:20:00,
2013-01-29 09:21:00,75.8,68.2,30.24,ESE,111,5.5,11.1,77,0.00,,---,0.00,VWS V13.01,2013-01-29 14:21:00,
2013-01-29 09:22:00,76.0,68.4,30.24,East,82,5.6,12.9,77,0.00,,---,0.00,VWS V13.01,2013-01-29 14:22:00,
2013-01-29 09:23:00,76.2,68.5,30.24,East,91,10.9,12.3,77,0.00,,---,0.00,VWS V13.01,2013-01-29 14:23:00,
2013-01-29 09:24:00,76.0,68.2,30.24,East,82,9.9,12.3,77,0.00,,---,0.00,VWS V13.01,2013-01-29 14:24:00,
2013-01-29 09:25:00,76.2,68.5,30.24,East,86,3.4,10.6,77,0.00,,---,0.00,VWS V13.01,2013-01-29 14:25:00,
2013-01-29 09:26:00,76.5,68.7,30.24,NNE,18,3.8,8.3,77,0.00,,---,0.00,VWS V13.01,2013-01-29 14:26:00,
2013-01-29 09:27:00,76.3,68.4,30.24,NE,49,4.3,14.8,76,0.00,,---,0.00,VWS V13.01,2013-01-29 14:27:00,
2013-01-29 09:28:00,76.5,68.8,30.24,ENE,70,4.3,4.5,77,0.00,,---,0.00,VWS V13.01,2013-01-29 14:28:00,
2013-01-29 09:29:00,76.8,69.1,30.24,ENE,72,3.4,4.5,77,0.00,,---,0.00,VWS V13.01,2013-01-29 14:29:00,
2013-01-29 09:30:00,76.7,68.9,30.24,SE,127,6.1,6.6,77,0.00,,---,0.00,VWS V13.01,2013-01-29 14:30:00,
2013-01-29 09:31:00,76.4,68.1,30.24,ESE,112,5.1,13.9,75,0.00,,---,0.00,VWS V13.01,2013-01-29 14:31:00,
2013-01-29 09:32:00,76.7,68.5,30.24,East,94,13.0,13.0,76,0.00,,---,0.00,VWS V13.01,2013-01-29 14:32:00,
2013-01-29 09:33:00,76.4,68.3,30.24,East,84,5.3,10.3,76,0.00,,---,0.00,VWS V13.01,2013-01-29 14:33:00,
2013-01-29 09:34:00,76.6,68.5,30.24,South,174,4.2,10.3,76,0.00,,---,0.00,VWS V13.01,2013-01-29 14:34:00,
2013-01-29 09:35:00,76.8,68.7,30.24,East,84,8.0,8.0,76,0.00,,---,0.00,VWS V13.01,2013-01-29 14:35:00,
2013-01-29 09:36:00,76.6,68.5,30.24,NE,49,2.4,8.0,76,0.00,,---,0.00,VWS V13.01,2013-01-29 14:36:00,
2013-01-29 09:37:00,76.7,68.6,30.24,East,86,2.8,9.7,76,0.00,,---,0.00,VWS V13.01,2013-01-29 14:37:00,
2013-01-29 09:38:00,76.7,68.6,30.24,SE,134,4.3,6.2,76,0.00,,---,0.00,VWS V13.01,2013-01-29 14:38:00,
2013-01-29 09:39:00,76.7,68.6,30.24,East,79,1.9,6.2,76,0.00,,---,0.00,VWS V13.01,2013-01-29 14:39:00,
2013-01-29 09:40:00,77.0,68.9,30.24,East,79,5.2,7.4,76,0.00,,---,0.00,VWS V13.01,2013-01-29 14:40:00,
2013-01-29 09:41:00,76.9,68.6,30.24,ESE,122,6.0,11.9,76,0.00,,---,0.00,VWS V13.01,2013-01-29 14:41:00,
2013-01-29 09:42:00,76.9,68.8,30.24,ESE,104,5.3,6.5,76,0.00,,---,0.00,VWS V13.01,2013-01-29 14:42:00,
2013-01-29 09:43:00,77.1,68.7,30.24,ENE,59,3.7,12.6,75,0.00,,---,0.00,VWS V13.01,2013-01-29 14:43:00,
2013-01-29 09:44:00,77.1,68.7,30.24,SE,127,2.4,12.6,75,0.00,,---,0.00,VWS V13.01,2013-01-29 14:44:00,
2013-01-29 09:45:00,76.8,68.1,30.24,East,80,9.9,14.1,75,0.00,,---,0.00,VWS V13.01,2013-01-29 14:45:00,
2013-01-29 09:46:00,76.9,68.2,30.24,East,83,6.6,12.2,75,0.00,,---,0.00,VWS V13.01,2013-01-29 14:46:00,
2013-01-29 09:47:00,76.9,68.4,30.24,East,100,10.4,13.5,75,0.00,,---,0.00,VWS V13.01,2013-01-29 14:47:00,
2013-01-29 09:48:00,77.0,68.6,30.24,East,90,5.2,6.6,75,0.00,,---,0.00,VWS V13.01,2013-01-29 14:48:00,
2013-01-29 09:49:00,77.0,68.6,30.24,East,84,6.7,6.7,75,0.00,,---,0.00,VWS V13.01,2013-01-29 14:49:00,
2013-01-29 09:50:00,77.1,68.7,30.24,East,79,5.3,9.9,75,0.00,,---,0.00,VWS V13.01,2013-01-29 14:50:00,
2013-01-29 09:51:00,77.2,68.8,30.24,East,86,8.0,14.9,75,0.00,,---,0.00,VWS V13.01,2013-01-29 14:51:00,
2013-01-29 09:52:00,77.1,68.7,30.24,East,100,5.7,9.8,75,0.00,,---,0.00,VWS V13.01,2013-01-29 14:52:00,
2013-01-29 09:53:00,76.9,68.4,30.24,East,101,9.8,17.6,75,0.00,,---,0.00,VWS V13.01,2013-01-29 14:53:00,
2013-01-29 09:54:00,76.9,68.4,30.24,East,86,9.8,17.6,75,0.00,,---,0.00,VWS V13.01,2013-01-29 14:54:00,
2013-01-29 09:55:00,77.1,68.7,30.24,ESE,104,5.7,11.7,75,0.00,,---,0.00,VWS V13.01,2013-01-29 14:55:00,
2013-01-29 09:56:00,76.8,68.2,30.24,SE,127,8.3,12.3,75,0.00,,---,0.00,VWS V13.01,2013-01-29 14:56:00,
2013-01-29 09:57:00,77.0,68.5,30.24,ESE,104,5.5,8.9,75,0.00,,---,0.00,VWS V13.01,2013-01-29 14:57:00,
2013-01-29 09:58:00,77.1,68.5,30.24,ESE,117,8.5,9.2,75,0.00,,---,0.00,VWS V13.01,2013-01-29 14:58:00,
2013-01-29 09:59:00,77.1,68.5,30.24,ESE,117,8.5,9.2,75,0.00,,---,0.00,VWS V13.01,2013-01-29 14:59:00,
2013-01-29 10:00:00,77.2,68.5,30.24,East,91,10.1,14.2,75,0.00,,---,0.00,VWS V13.01,2013-01-29 15:00:00,
2013-01-29 10:01:00,77.0,68.4,30.24,ESE,103,9.4,15.7,75,0.00,,---,0.00,VWS V13.01,2013-01-29 15:01:00,
2013-01-29 10:02:00,77.0,68.4,30.24,East,93,9.4,13.0,75,0.00,,---,0.00,VWS V13.01,2013-01-29 15:02:00,
2013-01-29 10:03:00,76.8,68.4,30.24,East,93,10.3,14.1,75,0.00,,---,0.00,VWS V13.01,2013-01-29 15:03:00,
2013-01-29 10:04:00,76.8,68.4,30.24,East,93,10.3,14.1,75,0.00,,---,0.00,VWS V13.01,2013-01-29 15:04:00,
2013-01-29 10:05:00,77.2,68.9,30.24,ENE,60,4.1,12.3,76,0.00,,---,0.00,VWS V13.01,2013-01-29 15:05:00,
2013-01-29 10:06:00,77.1,68.6,30.24,NE,41,4.8,5.4,75,0.00,,---,0.00,VWS V13.01,2013-01-29 15:06:00,
2013-01-29 10:07:00,77.4,68.7,30.24,NE,52,4.4,6.2,75,0.00,,---,0.00,VWS V13.01,2013-01-29 15:07:00,
2013-01-29 10:08:00,77.5,68.6,30.25,ENE,75,4.7,9.8,74,0.00,,---,0.00,VWS V13.01,2013-01-29 15:08:00,
2013-01-29 10:09:00,77.5,68.6,30.25,ENE,75,4.7,9.8,74,0.00,,---,0.00,VWS V13.01,2013-01-29 15:09:00,
2013-01-29 10:10:00,77.5,68.7,30.24,ESE,104,8.3,11.0,74,0.00,,---,0.00,VWS V13.01,2013-01-29 15:10:00,
2013-01-29 10:11:00,77.4,68.8,30.24,ENE,59,4.2,9.9,75,0.00,,---,0.00,VWS V13.01,2013-01-29 15:11:00,
2013-01-29 10:12:00,77.5,68.8,30.24,East,79,4.3,11.2,75,0.00,,---,0.00,VWS V13.01,2013-01-29 15:12:00,
2013-01-29 10:13:00,77.8,68.9,30.24,ESE,105,3.2,8.3,74,0.00,,---,0.00,VWS V13.01,2013-01-29 15:13:00,
2013-01-29 10:14:00,77.8,68.9,30.24,ESE,105,3.2,8.3,74,0.00,,---,0.00,VWS V13.01,2013-01-29 15:14:00,
2013-01-29 10:15:00,77.9,68.8,30.24,ENE,76,3.1,7.8,74,0.00,,---,0.00,VWS V13.01,2013-01-29 15:15:00,
2013-01-29 10:16:00,78.0,68.8,30.24,East,97,7.8,9.4,74,0.00,,---,0.00,VWS V13.01,2013-01-29 15:16:00,
2013-01-29 10:17:00,78.0,68.6,30.24,ENE,75,7.0,11.1,73,0.00,,---,0.00,VWS V13.01,2013-01-29 15:17:00,
2013-01-29 10:18:00,77.9,68.6,30.24,East,100,2.7,9.9,73,0.00,,---,0.00,VWS V13.01,2013-01-29 15:18:00,
2013-01-29 10:19:00,77.9,68.6,30.24,East,100,2.7,9.9,73,0.00,,---,0.00,VWS V13.01,2013-01-29 15:19:00,
2013-01-29 10:20:00,77.4,68.0,30.24,SE,135,7.7,11.9,73,0.00,,---,0.00,VWS V13.01,2013-01-29 15:20:00,
2013-01-29 10:21:00,78.0,68.9,30.24,East,100,5.5,9.6,74,0.00,,---,0.00,VWS V13.01,2013-01-29 15:21:00,
2013-01-29 10:22:00,77.9,69.0,30.24,ENE,77,4.7,6.6,74,0.00,,---,0.00,VWS V13.01,2013-01-29 15:22:00,
2013-01-29 10:23:00,78.1,68.5,30.24,East,89,8.1,11.9,72,0.00,,---,0.00,VWS V13.01,2013-01-29 15:23:00,
2013-01-29 10:24:00,78.1,68.5,30.24,East,89,8.1,11.9,72,0.00,,---,0.00,VWS V13.01,2013-01-29 15:24:00,
2013-01-29 10:25:00,78.1,68.3,30.24,East,79,5.4,12.7,72,0.00,,---,0.00,VWS V13.01,2013-01-29 15:25:00,
2013-01-29 10:26:00,78.4,68.8,30.24,ESE,107,6.9,9.4,72,0.00,,---,0.00,VWS V13.01,2013-01-29 15:26:00,
2013-01-29 10:27:00,78.3,68.7,30.24,ESE,110,4.3,8.1,72,0.00,,---,0.00,VWS V13.01,2013-01-29 15:27:00,
2013-01-29 10:28:00,78.5,68.7,30.24,East,94,9.1,10.7,72,0.00,,---,0.00,VWS V13.01,2013-01-29 15:28:00,
2013-01-29 10:29:00,78.5,68.7,30.24,East,94,9.1,10.7,72,0.00,,---,0.00,VWS V13.01,2013-01-29 15:29:00,
2013-01-29 10:30:00,78.3,68.6,30.24,ESE,121,8.8,11.7,72,0.00,,---,0.00,VWS V13.01,2013-01-29 15:30:00,
2013-01-29 10:31:00,78.3,68.5,30.24,SE,131,9.1,12.2,72,0.00,,---,0.00,VWS V13.01,2013-01-29 15:31:00,
2013-01-29 10:32:00,78.3,68.7,30.24,East,97,13.2,14.0,72,0.00,,---,0.00,VWS V13.01,2013-01-29 15:32:00,
2013-01-29 10:33:00,78.2,68.5,30.24,East,100,7.3,8.9,72,0.00,,---,0.00,VWS V13.01,2013-01-29 15:33:00,
2013-01-29 10:34:00,78.2,68.5,30.24,East,100,7.3,8.9,72,0.00,,---,0.00,VWS V13.01,2013-01-29 15:34:00,
2013-01-29 10:35:00,78.5,69.1,30.24,ENE,58,4.2,8.9,73,0.00,,---,0.00,VWS V13.01,2013-01-29 15:35:00,
2013-01-29 10:36:00,78.5,68.8,30.24,NE,38,6.5,10.4,72,0.00,,---,0.00,VWS V13.01,2013-01-29 15:36:00,
2013-01-29 10:37:00,78.5,68.5,30.24,ESE,121,4.3,6.5,71,0.00,,---,0.00,VWS V13.01,2013-01-29 15:37:00,
2013-01-29 10:38:00,78.3,68.7,30.24,ENE,72,7.9,9.1,72,0.00,,---,0.00,VWS V13.01,2013-01-29 15:38:00,
2013-01-29 10:39:00,78.3,68.7,30.24,ENE,72,7.9,9.1,72,0.00,,---,0.00,VWS V13.01,2013-01-29 15:39:00,
2013-01-29 10:40:00,78.4,68.9,30.24,ESE,107,3.5,7.9,73,0.00,,---,0.00,VWS V13.01,2013-01-29 15:40:00,
2013-01-29 10:41:00,78.3,69.0,30.24,East,79,7.0,7.0,73,0.00,,---,0.00,VWS V13.01,2013-01-29 15:41:00,
2013-01-29 10:42:00,78.2,68.9,30.24,East,97,9.3,11.0,73,0.00,,---,0.00,VWS V13.01,2013-01-29 15:42:00,
2013-01-29 10:43:00,78.0,68.7,30.24,East,86,9.4,12.6,73,0.00,,---,0.00,VWS V13.01,2013-01-29 15:43:00,
2013-01-29 10:44:00,78.2,69.0,30.24,ENE,60,5.1,5.8,73,0.00,,---,0.00,VWS V13.01,2013-01-29 15:44:00,
2013-01-29 10:45:00,77.8,68.5,30.24,East,90,14.9,19.0,73,0.00,,---,0.00,VWS V13.01,2013-01-29 15:45:00,
2013-01-29 10:46:00,77.8,68.7,30.24,East,79,9.3,14.9,74,0.00,,---,0.00,VWS V13.01,2013-01-29 15:46:00,
2013-01-29 10:47:00,77.4,68.1,30.24,East,79,6.7,13.7,73,0.00,,---,0.00,VWS V13.01,2013-01-29 15:47:00,
2013-01-29 10:48:00,77.5,68.5,30.24,East,91,6.6,11.1,74,0.00,,---,0.00,VWS V13.01,2013-01-29 15:48:00,
2013-01-29 10:49:00,77.4,68.1,30.24,East,83,11.9,14.5,73,0.00,,---,0.00,VWS V13.01,2013-01-29 15:49:00,
2013-01-29 10:50:00,77.2,67.9,30.24,South,169,5.7,14.5,73,0.00,,---,0.00,VWS V13.01,2013-01-29 15:50:00,
2013-01-29 10:51:00,77.5,68.4,30.24,East,94,6.9,10.0,74,0.00,,---,0.00,VWS V13.01,2013-01-29 15:51:00,
2013-01-29 10:52:00,77.7,68.6,30.24,ENE,69,3.4,8.3,74,0.00,,---,0.00,VWS V13.01,2013-01-29 15:52:00,
2013-01-29 10:53:00,77.5,68.4,30.24,East,89,5.3,9.7,74,0.00,,---,0.00,VWS V13.01,2013-01-29 15:53:00,
2013-01-29 10:54:00,77.8,68.5,30.24,East,91,7.5,7.5,73,0.00,,---,0.00,VWS V13.01,2013-01-29 15:54:00,
2013-01-29 10:55:00,77.8,68.5,30.24,East,82,3.9,8.9,73,0.00,,---,0.00,VWS V13.01,2013-01-29 15:55:00,
2013-01-29 10:56:00,77.8,68.3,30.24,East,98,6.8,9.4,72,0.00,,---,0.00,VWS V13.01,2013-01-29 15:56:00,
2013-01-29 10:57:00,77.8,68.3,30.24,ESE,120,5.2,13.9,72,0.00,,---,0.00,VWS V13.01,2013-01-29 15:57:00,
2013-01-29 10:58:00,78.0,68.5,30.24,East,98,6.0,12.8,73,0.00,,---,0.00,VWS V13.01,2013-01-29 15:58:00,
2013-01-29 10:59:00,78.0,68.5,30.24,East,91,5.6,7.9,73,0.00,,---,0.00,VWS V13.01,2013-01-29 15:59:00,
2013-01-29 11:00:00,78.2,68.5,30.24,ENE,68,4.9,13.7,72,0.00,,---,0.00,VWS V13.01,2013-01-29 16:00:00,
2013-01-29 11:01:00,78.4,68.6,30.24,East,90,3.5,9.0,72,0.00,,---,0.00,VWS V13.01,2013-01-29 16:01:00,
2013-01-29 11:02:00,78.4,68.6,30.24,NE,34,3.0,12.2,72,0.00,,---,0.00,VWS V13.01,2013-01-29 16:02:00,
2013-01-29 11:03:00,78.5,68.5,30.24,East,79,4.0,9.4,72,0.00,,---,0.00,VWS V13.01,2013-01-29 16:03:00,
2013-01-29 11:04:00,78.4,68.2,30.24,SE,127,5.1,7.6,71,0.00,,---,0.00,VWS V13.01,2013-01-29 16:04:00,
2013-01-29 11:05:00,78.7,68.5,30.24,East,91,7.5,9.1,71,0.00,,---,0.00,VWS V13.01,2013-01-29 16:05:00,
2013-01-29 11:06:00,77.7,67.9,30.24,ESE,117,9.4,14.5,72,0.00,,---,0.00,VWS V13.01,2013-01-29 16:06:00,
2013-01-29 11:07:00,78.2,68.6,30.23,East,79,5.4,9.7,72,0.00,,---,0.00,VWS V13.01,2013-01-29 16:07:00,
2013-01-29 11:08:00,78.4,68.8,30.24,East,79,2.9,8.1,72,0.00,,---,0.00,VWS V13.01,2013-01-29 16:08:00,
2013-01-29 11:09:00,78.5,68.9,30.24,East,87,6.2,7.4,72,0.00,,---,0.00,VWS V13.01,2013-01-29 16:09:00,
2013-01-29 11:10:00,78.1,68.3,30.23,East,97,9.8,12.9,72,0.00,,---,0.00,VWS V13.01,2013-01-29 16:10:00,
2013-01-29 11:11:00,78.3,68.4,30.24,ESE,122,7.8,12.6,72,0.00,,---,0.00,VWS V13.01,2013-01-29 16:11:00,
2013-01-29 11:12:00,78.0,67.9,30.23,East,86,7.6,14.7,71,0.00,,---,0.00,VWS V13.01,2013-01-29 16:12:00,
2013-01-29 11:13:00,78.2,68.6,30.23,East,79,4.7,11.9,72,0.00,,---,0.00,VWS V13.01,2013-01-29 16:13:00,
2013-01-29 11:14:00,77.9,68.4,30.23,ESE,121,9.6,10.8,73,0.00,,---,0.00,VWS V13.01,2013-01-29 16:14:00,
2013-01-29 11:15:00,77.5,68.2,30.23,ESE,107,10.4,11.6,73,0.00,,---,0.00,VWS V13.01,2013-01-29 16:15:00,
2013-01-29 11:16:00,77.5,68.4,30.23,East,91,9.6,13.2,74,0.00,,---,0.00,VWS V13.01,2013-01-29 16:16:00,
2013-01-29 11:17:00,78.0,69.2,30.23,East,79,11.9,11.9,74,0.00,,---,0.00,VWS V13.01,2013-01-29 16:17:00,
2013-01-29 11:18:00,77.7,68.2,30.23,East,79,5.2,13.4,73,0.00,,---,0.00,VWS V13.01,2013-01-29 16:18:00,
2013-01-29 11:19:00,77.7,68.2,30.24,ENE,76,10.4,10.4,73,0.00,,---,0.00,VWS V13.01,2013-01-29 16:19:00,
2013-01-29 11:20:00,77.3,67.8,30.24,East,93,9.7,14.0,72,0.00,,---,0.00,VWS V13.01,2013-01-29 16:20:00,
2013-01-29 11:21:00,77.7,68.5,30.23,SE,129,5.6,13.1,73,0.00,,---,0.00,VWS V13.01,2013-01-29 16:21:00,
2013-01-29 11:22:00,77.4,68.1,30.23,East,87,7.3,12.9,73,0.00,,---,0.00,VWS V13.01,2013-01-29 16:22:00,
2013-01-29 11:23:00,77.7,68.7,30.23,East,101,8.8,14.2,74,0.00,,---,0.00,VWS V13.01,2013-01-29 16:23:00,
2013-01-29 11:24:00,77.7,68.8,30.23,East,79,9.7,11.9,74,0.00,,---,0.00,VWS V13.01,2013-01-29 16:24:00,
2013-01-29 11:25:00,77.1,68.2,30.23,East,90,5.0,12.5,74,0.00,,---,0.00,VWS V13.01,2013-01-29 16:25:00,
2013-01-29 11:26:00,77.4,68.8,30.23,East,90,8.6,10.6,75,0.00,,---,0.00,VWS V13.01,2013-01-29 16:26:00,
2013-01-29 11:27:00,77.4,69.0,30.23,NE,51,2.9,8.6,75,0.00,,---,0.00,VWS V13.01,2013-01-29 16:27:00,
2013-01-29 11:28:00,77.7,69.2,30.23,East,98,4.9,9.3,75,0.00,,---,0.00,VWS V13.01,2013-01-29 16:28:00,
2013-01-29 11:29:00,77.2,68.7,30.23,East,84,6.8,11.9,75,0.00,,---,0.00,VWS V13.01,2013-01-29 16:29:00,
2013-01-29 11:30:00,77.3,68.8,30.23,East,82,5.4,11.9,75,0.00,,---,0.00,VWS V13.01,2013-01-29 16:30:00,
2013-01-29 11:31:00,77.5,69.0,30.23,SSE,158,3.9,7.0,75,0.00,,---,0.00,VWS V13.01,2013-01-29 16:31:00,
2013-01-29 11:33:00,77.2,68.4,30.23,ESE,117,7.8,12.7,74,0.00,,---,0.00,VWS V13.01,2013-01-29 16:33:00,
2013-01-29 11:34:00,77.3,68.6,30.23,East,86,3.3,11.1,75,0.00,,---,0.00,VWS V13.01,2013-01-29 16:34:00,
2013-01-29 11:35:00,77.4,68.8,30.23,East,96,4.0,11.1,75,0.00,,---,0.00,VWS V13.01,2013-01-29 16:35:00,
2013-01-29 11:36:00,77.5,68.8,30.23,SW,226,3.3,8.1,75,0.00,,---,0.00,VWS V13.01,2013-01-29 16:36:00,
2013-01-29 11:37:00,77.5,68.7,30.23,East,82,2.8,5.5,74,0.00,,---,0.00,VWS V13.01,2013-01-29 16:37:00,
2013-01-29 11:38:00,77.3,68.3,30.23,East,100,8.0,14.2,74,0.00,,---,0.00,VWS V13.01,2013-01-29 16:38:00,
2013-01-29 11:39:00,77.2,68.1,30.23,ENE,70,11.2,16.5,74,0.00,,---,0.00,VWS V13.01,2013-01-29 16:39:00,
2013-01-29 11:40:00,76.7,67.6,30.23,ESE,118,8.0,16.5,74,0.00,,---,0.00,VWS V13.01,2013-01-29 16:40:00,
2013-01-29 11:41:00,77.4,68.9,30.23,ENE,69,6.2,10.4,75,0.00,,---,0.00,VWS V13.01,2013-01-29 16:41:00,
2013-01-29 11:42:00,77.0,68.4,30.23,East,82,9.1,10.3,75,0.00,,---,0.00,VWS V13.01,2013-01-29 16:42:00,
2013-01-29 11:43:00,76.7,68.2,30.23,East,79,6.3,12.4,75,0.00,,---,0.00,VWS V13.01,2013-01-29 16:43:00,
2013-01-29 11:44:00,77.1,68.7,30.23,East,79,5.2,5.4,75,0.00,,---,0.00,VWS V13.01,2013-01-29 16:44:00,
2013-01-29 11:45:00,77.1,68.8,30.23,East,96,5.8,6.7,76,0.00,,---,0.00,VWS V13.01,2013-01-29 16:45:00,
2013-01-29 11:46:00,77.5,69.2,30.23,East,84,10.8,13.2,76,0.00,,---,0.00,VWS V13.01,2013-01-29 16:46:00,
2013-01-29 11:47:00,77.1,68.5,30.23,East,98,4.7,10.8,75,0.00,,---,0.00,VWS V13.01,2013-01-29 16:47:00,
2013-01-29 11:48:00,77.1,68.5,30.22,East,90,5.7,13.0,75,0.00,,---,0.00,VWS V13.01,2013-01-29 16:48:00,
2013-01-29 11:49:00,77.5,69.0,30.22,East,98,7.3,9.0,75,0.00,,---,0.00,VWS V13.01,2013-01-29 16:49:00,
2013-01-29 11:50:00,77.3,68.8,30.22,ENE,68,3.2,9.0,75,0.00,,---,0.00,VWS V13.01,2013-01-29 16:50:00,
2013-01-29 11:51:00,77.3,68.8,30.22,ESE,112,9.4,10.0,75,0.00,,---,0.00,VWS V13.01,2013-01-29 16:51:00,
2013-01-29 11:52:00,77.4,68.7,30.22,East,89,9.8,14.2,75,0.00,,---,0.00,VWS V13.01,2013-01-29 16:52:00,
2013-01-29 11:53:00,77.4,68.6,30.22,East,96,8.6,12.7,74,0.00,,---,0.00,VWS V13.01,2013-01-29 16:53:00,
2013-01-29 11:54:00,77.2,68.2,30.22,East,93,9.5,12.4,74,0.00,,---,0.00,VWS V13.01,2013-01-29 16:54:00,
2013-01-29 11:55:00,77.1,68.1,30.22,East,86,12.0,12.4,74,0.00,,---,0.00,VWS V13.01,2013-01-29 16:55:00,
2013-01-29 11:56:00,76.8,68.3,30.22,ESE,107,4.2,16.5,75,0.00,,---,0.00,VWS V13.01,2013-01-29 16:56:00,
2013-01-29 11:57:00,77.1,68.7,30.22,ESE,103,3.4,10.7,75,0.00,,---,0.00,VWS V13.01,2013-01-29 16:57:00,
2013-01-29 11:58:00,77.1,68.7,30.22,ESE,114,5.8,7.9,75,0.00,,---,0.00,VWS V13.01,2013-01-29 16:58:00,
2013-01-29 11:59:00,77.2,68.6,30.22,East,98,10.4,10.9,75,0.00,,---,0.00,VWS V13.01,2013-01-29 16:59:00,
2013-01-29 12:00:00,77.2,68.6,30.22,East,96,4.7,10.9,75,0.00,,---,0.00,VWS V13.01,2013-01-29 17:00:00,
2013-01-29 12:01:00,77.2,68.5,30.22,ESE,108,10.8,11.7,75,0.00,,---,0.00,VWS V13.01,2013-01-29 17:01:00,
2013-01-29 12:02:00,76.8,68.0,30.22,NE,56,8.8,13.7,74,0.00,,---,0.00,VWS V13.01,2013-01-29 17:02:00,
2013-01-29 12:03:00,76.7,68.1,30.22,ESE,120,7.2,11.4,75,0.00,,---,0.00,VWS V13.01,2013-01-29 17:03:00,
2013-01-29 12:04:00,77.0,68.4,30.22,ENE,59,7.1,11.2,75,0.00,,---,0.00,VWS V13.01,2013-01-29 17:04:00,
2013-01-29 12:05:00,77.0,68.4,30.22,NE,46,5.1,11.2,75,0.00,,---,0.00,VWS V13.01,2013-01-29 17:05:00,
2013-01-29 12:06:00,77.2,68.6,30.22,East,101,8.1,10.3,75,0.00,,---,0.00,VWS V13.01,2013-01-29 17:06:00,
2013-01-29 12:07:00,77.2,68.4,30.21,SE,128,3.1,11.2,74,0.00,,---,0.00,VWS V13.01,2013-01-29 17:07:00,
2013-01-29 12:08:00,77.3,68.7,30.21,East,98,7.1,9.6,75,0.00,,---,0.00,VWS V13.01,2013-01-29 17:08:00,
2013-01-29 12:09:00,77.8,68.9,30.21,East,84,5.7,8.3,74,0.00,,---,0.00,VWS V13.01,2013-01-29 17:09:00,
2013-01-29 12:10:00,77.8,68.9,30.21,East,84,5.7,8.3,74,0.00,,---,0.00,VWS V13.01,2013-01-29 17:10:00,
2013-01-29 12:11:00,77.8,68.3,30.21,NNE,22,4.0,12.4,73,0.00,,---,0.00,VWS V13.01,2013-01-29 17:11:00,
2013-01-29 12:12:00,77.8,68.3,30.21,ESE,117,9.4,17.2,73,0.00,,---,0.00,VWS V13.01,2013-01-29 17:12:00,
2013-01-29 12:13:00,78.1,68.6,30.21,East,87,7.2,9.4,73,0.00,,---,0.00,VWS V13.01,2013-01-29 17:13:00,
2013-01-29 12:14:00,78.0,68.6,30.21,ENE,73,7.7,13.4,73,0.00,,---,0.00,VWS V13.01,2013-01-29 17:14:00,
2013-01-29 12:15:00,78.0,68.6,30.21,ENE,73,7.7,13.4,73,0.00,,---,0.00,VWS V13.01,2013-01-29 17:15:00,
2013-01-29 12:16:00,77.7,68.4,30.21,East,79,6.8,11.6,73,0.00,,---,0.00,VWS V13.01,2013-01-29 17:16:00,
2013-01-29 12:17:00,77.9,68.6,30.21,ESE,107,9.3,11.3,73,0.00,,---,0.00,VWS V13.01,2013-01-29 17:17:00,
2013-01-29 12:18:00,77.9,68.8,30.21,East,93,8.3,9.8,74,0.00,,---,0.00,VWS V13.01,2013-01-29 17:18:00,
2013-01-29 12:19:00,77.7,68.8,30.21,East,79,8.4,13.4,74,0.00,,---,0.00,VWS V13.01,2013-01-29 17:19:00,
2013-01-29 12:20:00,77.7,68.8,30.21,East,79,8.4,13.4,74,0.00,,---,0.00,VWS V13.01,2013-01-29 17:20:00,
2013-01-29 12:21:00,77.7,68.7,30.21,East,97,7.0,11.1,74,0.00,,---,0.00,VWS V13.01,2013-01-29 17:21:00,
2013-01-29 12:22:00,77.4,68.3,30.21,ESE,104,8.0,11.3,74,0.00,,---,0.00,VWS V13.01,2013-01-29 17:22:00,
2013-01-29 12:23:00,77.3,68.3,30.21,ESE,105,6.0,12.5,74,0.00,,---,0.00,VWS V13.01,2013-01-29 17:23:00,
2013-01-29 12:24:00,77.4,68.4,30.21,East,79,4.0,10.1,74,0.00,,---,0.00,VWS V13.01,2013-01-29 17:24:00,
2013-01-29 12:25:00,77.4,68.4,30.21,East,79,4.0,10.1,74,0.00,,---,0.00,VWS V13.01,2013-01-29 17:25:00,
2013-01-29 12:26:00,77.7,68.7,30.21,East,89,7.1,7.1,74,0.00,,---,0.00,VWS V13.01,2013-01-29 17:26:00,
2013-01-29 12:27:00,77.5,68.4,30.21,East,79,1.6,10.5,74,0.00,,---,0.00,VWS V13.01,2013-01-29 17:27:00,
2013-01-29 12:28:00,77.5,68.3,30.21,East,91,4.4,10.6,73,0.00,,---,0.00,VWS V13.01,2013-01-29 17:28:00,
2013-01-29 12:29:00,77.7,68.6,30.21,East,84,7.3,11.2,74,0.00,,---,0.00,VWS V13.01,2013-01-29 17:29:00,
2013-01-29 12:30:00,77.7,68.6,30.21,East,84,7.3,11.2,74,0.00,,---,0.00,VWS V13.01,2013-01-29 17:30:00,
2013-01-29 12:31:00,77.8,68.6,30.20,East,86,6.2,11.1,73,0.00,,---,0.00,VWS V13.01,2013-01-29 17:31:00,
2013-01-29 12:32:00,77.9,68.8,30.20,ENE,62,2.1,9.3,74,0.00,,---,0.00,VWS V13.01,2013-01-29 17:32:00,
2013-01-29 12:33:00,77.9,68.9,30.20,NE,44,2.7,6.3,74,0.00,,---,0.00,VWS V13.01,2013-01-29 17:33:00,
2013-01-29 12:34:00,77.9,68.8,30.20,East,89,3.4,7.3,74,0.00,,---,0.00,VWS V13.01,2013-01-29 17:34:00,
2013-01-29 12:35:00,78.0,68.8,30.20,East,90,5.7,9.4,73,0.00,,---,0.00,VWS V13.01,2013-01-29 17:35:00,
2013-01-29 12:36:00,78.1,68.9,30.20,ENE,75,4.5,5.8,74,0.00,,---,0.00,VWS V13.01,2013-01-29 17:36:00,
2013-01-29 12:37:00,78.1,68.6,30.20,NE,38,4.4,8.6,73,0.00,,---,0.00,VWS V13.01,2013-01-29 17:37:00,
2013-01-29 12:38:00,78.0,68.2,30.20,ESE,118,3.7,7.4,72,0.00,,---,0.00,VWS V13.01,2013-01-29 17:38:00,
2013-01-29 12:39:00,77.9,68.1,30.20,ENE,77,9.9,13.3,72,0.00,,---,0.00,VWS V13.01,2013-01-29 17:39:00,
2013-01-29 12:40:00,77.4,67.4,30.20,ENE,70,9.6,9.7,71,0.00,,---,0.00,VWS V13.01,2013-01-29 17:40:00,
2013-01-29 12:41:00,77.3,67.7,30.20,ESE,111,8.6,12.9,72,0.00,,---,0.00,VWS V13.01,2013-01-29 17:41:00,
2013-01-29 12:42:00,77.4,68.1,30.20,East,89,8.3,11.0,73,0.00,,---,0.00,VWS V13.01,2013-01-29 17:42:00,
2013-01-29 12:43:00,77.2,68.2,30.20,ESE,103,9.6,14.0,74,0.00,,---,0.00,VWS V13.01,2013-01-29 17:43:00,
2013-01-29 12:44:00,77.0,67.9,30.20,East,84,6.0,11.2,74,0.00,,---,0.00,VWS V13.01,2013-01-29 17:44:00,
2013-01-29 12:45:00,77.3,68.5,30.20,SE,127,7.5,11.9,74,0.00,,---,0.00,VWS V13.01,2013-01-29 17:45:00,
2013-01-29 12:46:00,77.4,68.5,30.20,East,93,9.1,11.9,74,0.00,,---,0.00,VWS V13.01,2013-01-29 17:46:00,
2013-01-29 12:47:00,77.3,68.0,30.20,ESE,118,12.4,12.4,73,0.00,,---,0.00,VWS V13.01,2013-01-29 17:47:00,
2013-01-29 12:48:00,77.2,67.7,30.20,SSE,155,5.4,14.3,73,0.00,,---,0.00,VWS V13.01,2013-01-29 17:48:00,
2013-01-29 12:49:00,77.2,68.0,30.20,East,96,6.5,14.2,73,0.00,,---,0.00,VWS V13.01,2013-01-29 17:49:00,
2013-01-29 12:50:00,77.1,68.1,30.20,ESE,105,11.1,11.1,74,0.00,,---,0.00,VWS V13.01,2013-01-29 17:50:00,
2013-01-29 12:51:00,76.9,67.9,30.20,East,84,8.0,11.7,74,0.00,,---,0.00,VWS V13.01,2013-01-29 17:51:00,
2013-01-29 12:52:00,77.0,68.1,30.20,ESE,108,7.4,11.3,74,0.00,,---,0.00,VWS V13.01,2013-01-29 17:52:00,
2013-01-29 12:53:00,76.9,68.3,30.19,East,89,9.8,11.9,75,0.00,,---,0.00,VWS V13.01,2013-01-29 17:53:00,
2013-01-29 12:54:00,77.2,68.7,30.19,East,83,3.9,9.8,75,0.00,,---,0.00,VWS V13.01,2013-01-29 17:54:00,
2013-01-29 12:55:00,77.3,68.7,30.19,East,79,3.4,9.4,75,0.00,,---,0.00,VWS V13.01,2013-01-29 17:55:00,
2013-01-29 12:56:00,77.4,68.6,30.19,ESE,117,8.0,9.4,74,0.00,,---,0.00,VWS V13.01,2013-01-29 17:56:00,
2013-01-29 12:57:00,77.1,68.1,30.19,ESE,118,6.6,12.3,74,0.00,,---,0.00,VWS V13.01,2013-01-29 17:57:00,
2013-01-29 12:58:00,77.1,68.2,30.19,East,79,7.4,14.4,74,0.00,,---,0.00,VWS V13.01,2013-01-29 17:58:00,
2013-01-29 12:59:00,77.3,68.3,30.19,East,79,6.5,8.5,74,0.00,,---,0.00,VWS V13.01,2013-01-29 17:59:00,
2013-01-29 13:00:00,77.4,68.3,30.19,ESE,118,3.2,4.7,74,0.00,,---,0.00,VWS V13.01,2013-01-29 18:00:00,
2013-01-29 13:01:00,77.3,68.1,30.19,East,82,4.8,8.9,73,0.00,,---,0.00,VWS V13.01,2013-01-29 18:01:00,
2013-01-29 13:02:00,77.4,68.2,30.19,East,101,2.9,9.7,73,0.00,,---,0.00,VWS V13.01,2013-01-29 18:02:00,
2013-01-29 13:03:00,77.3,68.1,30.18,SE,135,4.5,6.5,73,0.00,,---,0.00,VWS V13.01,2013-01-29 18:03:00,
2013-01-29 13:04:00,77.7,68.4,30.19,SE,131,10.6,10.6,73,0.00,,---,0.00,VWS V13.01,2013-01-29 18:04:00,
2013-01-29 13:05:00,77.8,68.2,30.18,NE,46,6.8,6.8,72,0.00,,---,0.00,VWS V13.01,2013-01-29 18:05:00,
2013-01-29 13:06:00,77.8,68.1,30.18,East,79,4.2,6.8,72,0.00,,---,0.00,VWS V13.01,2013-01-29 18:06:00,
2013-01-29 13:07:00,78.0,68.0,30.18,East,79,9.6,14.5,71,0.00,,---,0.00,VWS V13.01,2013-01-29 18:07:00,
2013-01-29 13:08:00,77.7,68.0,30.18,East,90,7.1,11.2,72,0.00,,---,0.00,VWS V13.01,2013-01-29 18:08:00,
2013-01-29 13:09:00,77.8,68.1,30.18,East,100,7.4,10.8,72,0.00,,---,0.00,VWS V13.01,2013-01-29 18:09:00,
2013-01-29 13:10:00,77.8,68.0,30.18,East,84,9.0,10.6,72,0.00,,---,0.00,VWS V13.01,2013-01-29 18:10:00,
2013-01-29 13:11:00,77.5,67.8,30.18,NE,53,3.1,13.6,72,0.00,,---,0.00,VWS V13.01,2013-01-29 18:11:00,
2013-01-29 13:12:00,77.1,67.5,30.18,ESE,105,7.0,13.9,72,0.00,,---,0.00,VWS V13.01,2013-01-29 18:12:00,
2013-01-29 13:13:00,77.5,68.1,30.18,East,101,3.7,12.6,73,0.00,,---,0.00,VWS V13.01,2013-01-29 18:13:00,
2013-01-29 13:14:00,77.3,67.9,30.18,NE,53,5.2,12.4,73,0.00,,---,0.00,VWS V13.01,2013-01-29 18:14:00,
2013-01-29 13:15:00,77.0,67.5,30.18,ENE,65,8.5,11.8,72,0.00,,---,0.00,VWS V13.01,2013-01-29 18:15:00,
2013-01-29 13:16:00,77.4,68.0,30.18,East,79,9.4,11.8,73,0.00,,---,0.00,VWS V13.01,2013-01-29 18:16:00,
2013-01-29 13:18:00,77.4,68.1,30.18,ENE,66,7.5,8.5,73,0.00,,---,0.00,VWS V13.01,2013-01-29 18:18:00,
2013-01-29 13:19:00,77.5,68.1,30.18,ENE,66,4.6,7.7,73,0.00,,---,0.00,VWS V13.01,2013-01-29 18:19:00,
2013-01-29 13:20:00,77.7,68.0,30.18,East,97,4.6,7.1,72,0.00,,---,0.00,VWS V13.01,2013-01-29 18:20:00,
2013-01-29 13:21:00,77.9,68.0,30.18,East,79,5.5,7.7,72,0.00,,---,0.00,VWS V13.01,2013-01-29 18:21:00,
2013-01-29 13:22:00,77.9,67.8,30.18,NE,44,4.8,9.6,71,0.00,,---,0.00,VWS V13.01,2013-01-29 18:22:00,
2013-01-29 13:23:00,77.4,67.3,30.18,ESE,105,4.0,14.7,71,0.00,,---,0.00,VWS V13.01,2013-01-29 18:23:00,
2013-01-29 13:24:00,77.4,67.5,30.17,ESE,105,4.4,12.3,72,0.00,,---,0.00,VWS V13.01,2013-01-29 18:24:00,
2013-01-29 13:25:00,77.8,67.8,30.18,ESE,115,4.5,12.4,71,0.00,,---,0.00,VWS V13.01,2013-01-29 18:25:00,
2013-01-29 13:26:00,77.5,67.7,30.17,SSE,155,1.9,12.4,72,0.00,,---,0.00,VWS V13.01,2013-01-29 18:26:00,
2013-01-29 13:27:00,77.8,68.1,30.17,ESE,115,7.3,10.3,72,0.00,,---,0.00,VWS V13.01,2013-01-29 18:27:00,
2013-01-29 13:28:00,77.2,67.3,30.17,East,89,11.6,14.5,72,0.00,,---,0.00,VWS V13.01,2013-01-29 18:28:00,
2013-01-29 13:29:00,77.5,68.1,30.17,NE,53,4.2,14.9,73,0.00,,---,0.00,VWS V13.01,2013-01-29 18:29:00,
2013-01-29 13:30:00,77.4,68.2,30.18,NE,52,3.4,14.2,73,0.00,,---,0.00,VWS V13.01,2013-01-29 18:30:00,
2013-01-29 13:31:00,77.4,68.2,30.17,East,80,5.3,14.2,73,0.00,,---,0.00,VWS V13.01,2013-01-29 18:31:00,
2013-01-29 13:32:00,77.7,68.4,30.17,East,86,4.9,13.1,73,0.00,,---,0.00,VWS V13.01,2013-01-29 18:32:00,
2013-01-29 13:33:00,77.4,67.7,30.17,NE,56,10.8,13.7,72,0.00,,---,0.00,VWS V13.01,2013-01-29 18:33:00,
2013-01-29 13:34:00,77.5,67.8,30.17,ESE,110,7.5,10.8,72,0.00,,---,0.00,VWS V13.01,2013-01-29 18:34:00,
2013-01-29 13:35:00,77.7,67.8,30.17,SE,145,5.1,10.6,72,0.00,,---,0.00,VWS V13.01,2013-01-29 18:35:00,
2013-01-29 13:36:00,77.3,67.4,30.17,East,79,11.7,12.8,72,0.00,,---,0.00,VWS V13.01,2013-01-29 18:36:00,
2013-01-29 13:37:00,77.3,67.3,30.17,ESE,122,7.0,14.5,71,0.00,,---,0.00,VWS V13.01,2013-01-29 18:37:00,
2013-01-29 13:38:00,77.2,67.5,30.17,South,173,7.2,12.1,72,0.00,,---,0.00,VWS V13.01,2013-01-29 18:38:00,
2013-01-29 13:39:00,77.4,67.8,30.17,East,86,5.3,10.7,72,0.00,,---,0.00,VWS V13.01,2013-01-29 18:39:00,
2013-01-29 13:40:00,77.9,67.7,30.17,ESE,104,11.2,15.8,71,0.00,,---,0.00,VWS V13.01,2013-01-29 18:40:00,
2013-01-29 13:41:00,77.8,67.5,30.17,East,87,10.4,15.8,71,0.00,,---,0.00,VWS V13.01,2013-01-29 18:41:00,
2013-01-29 13:42:00,77.8,67.1,30.17,East,82,7.7,15.3,70,0.00,,---,0.00,VWS V13.01,2013-01-29 18:42:00,
2013-01-29 13:43:00,77.8,67.2,30.17,ESE,121,6.2,16.4,70,0.00,,---,0.00,VWS V13.01,2013-01-29 18:43:00,
2013-01-29 13:44:00,78.1,67.7,30.17,East,93,5.3,12.7,70,0.00,,---,0.00,VWS V13.01,2013-01-29 18:44:00,
2013-01-29 13:45:00,78.3,67.7,30.17,ESE,118,5.5,14.9,70,0.00,,---,0.00,VWS V13.01,2013-01-29 18:45:00,
2013-01-29 13:46:00,78.3,67.7,30.17,NE,55,4.7,14.9,70,0.00,,---,0.00,VWS V13.01,2013-01-29 18:46:00,
2013-01-29 13:47:00,78.1,67.3,30.17,ESE,107,5.2,14.4,70,0.00,,---,0.00,VWS V13.01,2013-01-29 18:47:00,
2013-01-29 13:48:00,77.8,67.2,30.17,SSE,163,7.6,14.0,70,0.00,,---,0.00,VWS V13.01,2013-01-29 18:48:00,
2013-01-29 13:49:00,77.7,67.6,30.17,ESE,107,5.0,12.1,71,0.00,,---,0.00,VWS V13.01,2013-01-29 18:49:00,
2013-01-29 13:50:00,77.4,67.6,30.17,East,84,5.7,12.4,72,0.00,,---,0.00,VWS V13.01,2013-01-29 18:50:00,
2013-01-29 13:51:00,77.5,67.7,30.17,East,79,3.5,12.4,72,0.00,,---,0.00,VWS V13.01,2013-01-29 18:51:00,
2013-01-29 13:52:00,78.0,68.3,30.17,East,100,6.6,8.7,72,0.00,,---,0.00,VWS V13.01,2013-01-29 18:52:00,
2013-01-29 13:53:00,77.4,67.2,30.16,East,94,6.0,12.7,71,0.00,,---,0.00,VWS V13.01,2013-01-29 18:53:00,
2013-01-29 13:54:00,77.4,67.5,30.17,East,86,4.9,12.6,72,0.00,,---,0.00,VWS V13.01,2013-01-29 18:54:00,
2013-01-29 13:55:00,77.2,67.7,30.16,East,94,11.5,14.3,73,0.00,,---,0.00,VWS V13.01,2013-01-29 18:55:00,
2013-01-29 13:56:00,77.2,67.7,30.16,ESE,108,8.0,14.3,73,0.00,,---,0.00,VWS V13.01,2013-01-29 18:56:00,
2013-01-29 13:57:00,77.7,68.3,30.16,NE,53,4.7,11.2,73,0.00,,---,0.00,VWS V13.01,2013-01-29 18:57:00,
2013-01-29 13:58:00,77.4,67.9,30.16,ESE,112,11.7,12.1,72,0.00,,---,0.00,VWS V13.01,2013-01-29 18:58:00,
2013-01-29 13:59:00,77.2,67.8,30.16,East,90,11.1,15.6,73,0.00,,---,0.00,VWS V13.01,2013-01-29 18:59:00,
2013-01-29 14:00:00,77.8,68.5,30.16,ENE,75,4.8,10.7,73,0.00,,---,0.00,VWS V13.01,2013-01-29 19:00:00,
2013-01-29 14:01:00,77.8,68.5,30.16,East,97,5.8,10.7,73,0.00,,---,0.00,VWS V13.01,2013-01-29 19:01:00,
2013-01-29 14:02:00,77.7,68.1,30.16,ENE,60,4.2,5.8,72,0.00,,---,0.00,VWS V13.01,2013-01-29 19:02:00,
2013-01-29 14:03:00,77.7,67.8,30.16,East,79,8.3,9.4,72,0.00,,---,0.00,VWS V13.01,2013-01-29 19:03:00,
2013-01-29 14:04:00,78.0,68.1,30.16,East,94,11.6,13.3,72,0.00,,---,0.00,VWS V13.01,2013-01-29 19:04:00,
2013-01-29 14:05:00,78.1,68.2,30.16,SE,134,2.3,4.2,72,0.00,,---,0.00,VWS V13.01,2013-01-29 19:05:00,
2013-01-29 14:06:00,78.1,68.2,30.16,SE,134,3.2,4.2,72,0.00,,---,0.00,VWS V13.01,2013-01-29 19:06:00,
2013-01-29 14:07:00,78.1,67.7,30.16,NE,52,3.7,11.6,70,0.00,,---,0.00,VWS V13.01,2013-01-29 19:07:00,
2013-01-29 14:09:00,78.2,67.6,30.16,ENE,72,3.7,6.3,70,0.00,,---,0.00,VWS V13.01,2013-01-29 19:09:00,
2013-01-29 14:10:00,78.4,67.9,30.16,ENE,76,5.8,6.9,70,0.00,,---,0.00,VWS V13.01,2013-01-29 19:10:00,
2013-01-29 14:12:00,78.3,67.9,30.16,ENE,60,7.3,8.8,70,0.00,,---,0.00,VWS V13.01,2013-01-29 19:12:00,
2013-01-29 14:14:00,78.2,67.7,30.16,East,84,9.6,11.9,70,0.00,,---,0.00,VWS V13.01,2013-01-29 19:14:00,
2013-01-29 14:15:00,78.2,67.7,30.16,North,356,4.2,5.3,70,0.00,,---,0.00,VWS V13.01,2013-01-29 19:15:00,
2013-01-29 14:16:00,78.2,67.7,30.16,ESE,108,5.3,11.6,70,0.00,,---,0.00,VWS V13.01,2013-01-29 19:16:00,
2013-01-29 14:17:00,78.3,67.9,30.16,East,97,3.7,11.1,70,0.00,,---,0.00,VWS V13.01,2013-01-29 19:17:00,
2013-01-29 14:18:00,78.4,67.9,30.16,East,79,3.0,11.2,70,0.00,,---,0.00,VWS V13.01,2013-01-29 19:18:00,
2013-01-29 14:19:00,78.3,67.8,30.16,ESE,112,3.2,10.3,70,0.00,,---,0.00,VWS V13.01,2013-01-29 19:19:00,
2013-01-29 14:20:00,78.7,68.3,30.15,SSE,155,8.5,8.5,70,0.00,,---,0.00,VWS V13.01,2013-01-29 19:20:00,
2013-01-29 14:21:00,78.7,68.3,30.16,SSE,155,8.5,8.5,70,0.00,,---,0.00,VWS V13.01,2013-01-29 19:21:00,
2013-01-29 14:22:00,78.3,67.3,30.16,East,87,10.9,12.5,69,0.00,,---,0.00,VWS V13.01,2013-01-29 19:22:00,
2013-01-29 14:23:00,78.7,67.7,30.16,East,100,9.1,10.9,69,0.00,,---,0.00,VWS V13.01,2013-01-29 19:23:00,
2013-01-29 14:24:00,78.7,67.8,30.16,East,79,6.0,9.6,69,0.00,,---,0.00,VWS V13.01,2013-01-29 19:24:00,
2013-01-29 14:25:00,78.9,67.8,30.15,East,84,12.4,12.4,69,0.00,,---,0.00,VWS V13.01,2013-01-29 19:25:00,
2013-01-29 14:26:00,78.9,67.8,30.16,East,84,12.4,12.4,69,0.00,,---,0.00,VWS V13.01,2013-01-29 19:26:00,
2013-01-29 14:27:00,78.9,67.8,30.16,ENE,75,4.8,12.4,69,0.00,,---,0.00,VWS V13.01,2013-01-29 19:27:00,
2013-01-29 14:28:00,79.0,67.5,30.16,East,79,5.2,9.0,68,0.00,,---,0.00,VWS V13.01,2013-01-29 19:28:00,
2013-01-29 14:29:00,78.9,67.2,30.15,East,84,2.5,8.3,68,0.00,,---,0.00,VWS V13.01,2013-01-29 19:29:00,
2013-01-29 14:30:00,78.1,66.7,30.15,SE,124,8.8,15.7,68,0.00,,---,0.00,VWS V13.01,2013-01-29 19:30:00,
2013-01-29 14:31:00,78.1,66.7,30.15,SE,124,8.8,15.7,68,0.00,,---,0.00,VWS V13.01,2013-01-29 19:31:00,
2013-01-29 14:32:00,78.3,67.3,30.15,ENE,68,5.7,9.3,69,0.00,,---,0.00,VWS V13.01,2013-01-29 19:32:00,
2013-01-29 14:33:00,78.5,67.4,30.15,NE,56,2.9,8.5,69,0.00,,---,0.00,VWS V13.01,2013-01-29 19:33:00,
2013-01-29 14:34:00,78.5,67.5,30.15,East,86,4.8,6.7,69,0.00,,---,0.00,VWS V13.01,2013-01-29 19:34:00,
2013-01-29 14:35:00,78.2,67.3,30.15,East,79,6.2,12.1,69,0.00,,---,0.00,VWS V13.01,2013-01-29 19:35:00,
2013-01-29 14:36:00,78.2,67.3,30.15,East,79,6.2,12.1,69,0.00,,---,0.00,VWS V13.01,2013-01-29 19:36:00,
2013-01-29 14:37:00,78.4,67.7,30.15,ENE,60,6.7,11.2,70,0.00,,---,0.00,VWS V13.01,2013-01-29 19:37:00,
2013-01-29 14:38:00,78.3,67.6,30.15,SE,143,6.7,9.4,70,0.00,,---,0.00,VWS V13.01,2013-01-29 19:38:00,
2013-01-29 14:39:00,77.8,67.3,30.15,NE,53,6.1,13.2,70,0.00,,---,0.00,VWS V13.01,2013-01-29 19:39:00,
2013-01-29 14:40:00,78.0,68.0,30.15,East,79,4.6,9.4,71,0.00,,---,0.00,VWS V13.01,2013-01-29 19:40:00,
2013-01-29 14:41:00,78.0,68.0,30.15,East,79,4.6,9.4,71,0.00,,---,0.00,VWS V13.01,2013-01-29 19:41:00,
2013-01-29 14:42:00,78.1,68.2,30.15,ENE,66,3.9,12.6,72,0.00,,---,0.00,VWS V13.01,2013-01-29 19:42:00,
2013-01-29 14:43:00,77.9,67.9,30.15,East,90,13.9,13.9,71,0.00,,---,0.00,VWS V13.01,2013-01-29 19:43:00,
2013-01-29 14:44:00,77.8,67.8,30.15,East,82,7.4,15.0,71,0.00,,---,0.00,VWS V13.01,2013-01-29 19:44:00,
2013-01-29 14:45:00,77.9,67.8,30.15,SE,127,8.5,10.4,71,0.00,,---,0.00,VWS V13.01,2013-01-29 19:45:00,
2013-01-29 14:46:00,77.5,67.4,30.15,East,84,19.1,19.1,71,0.00,,---,0.00,VWS V13.01,2013-01-29 19:46:00,
2013-01-29 14:47:00,77.3,67.5,30.15,East,83,3.8,19.1,72,0.00,,---,0.00,VWS V13.01,2013-01-29 19:47:00,
2013-01-29 14:48:00,77.5,67.7,30.15,East,90,6.2,9.6,72,0.00,,---,0.00,VWS V13.01,2013-01-29 19:48:00,
2013-01-29 14:49:00,77.4,67.6,30.15,East,79,3.2,12.0,72,0.00,,---,0.00,VWS V13.01,2013-01-29 19:49:00,
2013-01-29 14:50:00,77.5,67.9,30.15,ENE,77,3.7,6.5,72,0.00,,---,0.00,VWS V13.01,2013-01-29 19:50:00,
2013-01-29 14:51:00,78.0,68.1,30.15,ENE,68,8.8,12.2,72,0.00,,---,0.00,VWS V13.01,2013-01-29 19:51:00,
2013-01-29 14:52:00,77.7,67.9,30.15,ESE,110,8.5,12.2,72,0.00,,---,0.00,VWS V13.01,2013-01-29 19:52:00,
2013-01-29 14:53:00,77.7,67.6,30.15,East,89,15.8,15.8,71,0.00,,---,0.00,VWS V13.01,2013-01-29 19:53:00,
2013-01-29 14:54:00,77.7,67.6,30.15,NNE,25,5.0,21.4,71,0.00,,---,0.00,VWS V13.01,2013-01-29 19:54:00,
2013-01-29 14:55:00,77.8,67.7,30.14,ESE,105,3.5,7.3,71,0.00,,---,0.00,VWS V13.01,2013-01-29 19:55:00,
2013-01-29 14:56:00,77.8,67.5,30.15,East,79,5.3,6.1,71,0.00,,---,0.00,VWS V13.01,2013-01-29 19:56:00,
2013-01-29 14:57:00,78.0,67.6,30.15,ENE,68,4.5,6.8,70,0.00,,---,0.00,VWS V13.01,2013-01-29 19:57:00,
2013-01-29 14:58:00,78.1,67.7,30.15,East,91,9.3,9.3,70,0.00,,---,0.00,VWS V13.01,2013-01-29 19:58:00,
2013-01-29 14:59:00,78.1,67.6,30.15,NE,34,4.8,12.6,70,0.00,,---,0.00,VWS V13.01,2013-01-29 19:59:00,
2013-01-29 15:00:00,77.9,67.2,30.15,East,93,10.5,13.5,70,0.00,,---,0.00,VWS V13.01,2013-01-29 20:00:00,
2013-01-29 15:01:00,77.9,67.6,30.15,NE,52,5.5,10.7,71,0.00,,---,0.00,VWS V13.01,2013-01-29 20:01:00,
2013-01-29 15:02:00,77.9,67.6,30.15,East,79,5.7,10.8,71,0.00,,---,0.00,VWS V13.01,2013-01-29 20:02:00,
2013-01-29 15:03:00,77.8,67.2,30.15,East,87,6.3,12.2,70,0.00,,---,0.00,VWS V13.01,2013-01-29 20:03:00,
2013-01-29 15:04:00,77.8,67.5,30.15,East,91,11.3,11.3,71,0.00,,---,0.00,VWS V13.01,2013-01-29 20:04:00,
2013-01-29 15:05:00,77.5,66.8,30.15,NE,45,6.1,14.6,70,0.00,,---,0.00,VWS V13.01,2013-01-29 20:05:00,
2013-01-29 15:06:00,77.1,66.3,30.15,East,79,7.3,15.8,69,0.00,,---,0.00,VWS V13.01,2013-01-29 20:06:00,
2013-01-29 15:07:00,77.1,66.3,30.15,East,79,7.3,15.8,69,0.00,,---,0.00,VWS V13.01,2013-01-29 20:07:00,